
<gpx xmlns="http://www.topografix.com/GPX/1/1" xmlns:gpxx="http://www.garmin.com/xmlschemas/GpxExtensions/v3" xmlns:wptx1="http://www.garmin.com/xmlschemas/WaypointExtension/v1" xmlns:xsi="http://www.w3.org/2001/XMLSchema-instance" version="1.1" creator="Adze - https://getadze.com/" xsi:schemaLocation="http://www.topografix.com/GPX/1/1 http://www.topografix.com/GPX/1/1/gpx.xsd http://www.garmin.com/xmlschemas/GpxExtensions/v3 http://www8.garmin.com/xmlschemas/GpxExtensionsv3.xsd http://www.garmin.com/xmlschemas/WaypointExtension/v1 http://www8.garmin.com/xmlschemas/WaypointExtensionv1.xsd">
    <metadata>
        <name>Untitled Document</name>
        <link href="http://www.garmin.com"></link>
        <time>2018-03-06T04:11:18.346Z</time>
    </metadata>
    <wpt lon="100.479706" lat="13.927527">
        <ele>-5.000000</ele>
        <name>WatSaphanSung</name>
        <cmt>16-AUG-06 9:07:03</cmt>
        <desc>16-AUG-06 9:07:03</desc>
        <sym>Church</sym>
        <type>user</type>
        <extensions>
            <gpxx:WaypointExtension>
                <gpxx:DisplayMode>SymbolAndName</gpxx:DisplayMode>
            </gpxx:WaypointExtension>
            <wptx1:WaypointExtension>
                <wptx1:DisplayMode>SymbolAndName</wptx1:DisplayMode>
            </wptx1:WaypointExtension>
        </extensions>
    </wpt>
    <trk>
        <name>Augist 2006 - Saturday</name>
        <extensions>
            <gpxx:TrackExtension>
                <gpxx:DisplayColor>DarkGray</gpxx:DisplayColor>
            </gpxx:TrackExtension>
        </extensions>
        <trkseg>
            <trkpt lon="100.480222" lat="13.927212">
                <ele>2.060059</ele>
                <time>2006-08-26T06:06:43Z</time>
            </trkpt>
            <trkpt lon="100.480085" lat="13.927161">
                <ele>0.618042</ele>
                <time>2006-08-26T06:06:56Z</time>
            </trkpt>
            <trkpt lon="100.480053" lat="13.927147">
                <ele>1.579346</ele>
                <time>2006-08-26T06:07:15Z</time>
            </trkpt>
            <trkpt lon="100.480038" lat="13.927149">
                <ele>2.060059</ele>
                <time>2006-08-26T06:07:48Z</time>
            </trkpt>
            <trkpt lon="100.480035" lat="13.927157">
                <ele>0.618042</ele>
                <time>2006-08-26T06:08:27Z</time>
            </trkpt>
            <trkpt lon="100.480043" lat="13.927176">
                <ele>-3.707886</ele>
                <time>2006-08-26T06:08:56Z</time>
            </trkpt>
            <trkpt lon="100.480051" lat="13.927138">
                <ele>4.943848</ele>
                <time>2006-08-26T06:09:37Z</time>
            </trkpt>
            <trkpt lon="100.480036" lat="13.927137">
                <ele>7.827881</ele>
                <time>2006-08-26T06:10:21Z</time>
            </trkpt>
            <trkpt lon="100.480041" lat="13.927190">
                <ele>6.385864</ele>
                <time>2006-08-26T06:11:43Z</time>
            </trkpt>
            <trkpt lon="100.480082" lat="13.927186">
                <ele>2.060059</ele>
                <time>2006-08-26T06:12:06Z</time>
            </trkpt>
            <trkpt lon="100.480086" lat="13.927196">
                <ele>1.579346</ele>
                <time>2006-08-26T06:12:08Z</time>
            </trkpt>
            <trkpt lon="100.480095" lat="13.927325">
                <ele>-0.343384</ele>
                <time>2006-08-26T06:12:24Z</time>
            </trkpt>
            <trkpt lon="100.480098" lat="13.927592">
                <ele>-3.227295</ele>
                <time>2006-08-26T06:12:50Z</time>
            </trkpt>
            <trkpt lon="100.480129" lat="13.927653">
                <ele>-0.343384</ele>
                <time>2006-08-26T06:13:05Z</time>
            </trkpt>
            <trkpt lon="100.480258" lat="13.927733">
                <ele>0.137451</ele>
                <time>2006-08-26T06:13:19Z</time>
            </trkpt>
            <trkpt lon="100.480394" lat="13.927757">
                <ele>-0.343384</ele>
                <time>2006-08-26T06:13:27Z</time>
            </trkpt>
            <trkpt lon="100.480452" lat="13.927859">
                <ele>-0.343384</ele>
                <time>2006-08-26T06:13:34Z</time>
            </trkpt>
            <trkpt lon="100.480824" lat="13.928079">
                <ele>1.579346</ele>
                <time>2006-08-26T06:13:52Z</time>
            </trkpt>
            <trkpt lon="100.481190" lat="13.928380">
                <ele>2.060059</ele>
                <time>2006-08-26T06:14:08Z</time>
            </trkpt>
            <trkpt lon="100.481603" lat="13.928756">
                <ele>1.579346</ele>
                <time>2006-08-26T06:14:19Z</time>
            </trkpt>
            <trkpt lon="100.482424" lat="13.929550">
                <ele>0.618042</ele>
                <time>2006-08-26T06:14:41Z</time>
            </trkpt>
            <trkpt lon="100.483069" lat="13.930121">
                <ele>0.618042</ele>
                <time>2006-08-26T06:14:56Z</time>
            </trkpt>
            <trkpt lon="100.483365" lat="13.930188">
                <ele>0.137451</ele>
                <time>2006-08-26T06:15:01Z</time>
            </trkpt>
            <trkpt lon="100.484309" lat="13.930268">
                <ele>-1.304688</ele>
                <time>2006-08-26T06:15:16Z</time>
            </trkpt>
            <trkpt lon="100.485292" lat="13.930560">
                <ele>-1.785278</ele>
                <time>2006-08-26T06:15:34Z</time>
            </trkpt>
            <trkpt lon="100.486057" lat="13.930864">
                <ele>-0.343384</ele>
                <time>2006-08-26T06:15:51Z</time>
            </trkpt>
            <trkpt lon="100.486480" lat="13.931020">
                <ele>0.137451</ele>
                <time>2006-08-26T06:16:01Z</time>
            </trkpt>
            <trkpt lon="100.486783" lat="13.931089">
                <ele>-0.343384</ele>
                <time>2006-08-26T06:16:08Z</time>
            </trkpt>
            <trkpt lon="100.486984" lat="13.931412">
                <ele>-1.785278</ele>
                <time>2006-08-26T06:16:17Z</time>
            </trkpt>
            <trkpt lon="100.487131" lat="13.931544">
                <ele>-1.785278</ele>
                <time>2006-08-26T06:16:21Z</time>
            </trkpt>
            <trkpt lon="100.487918" lat="13.931969">
                <ele>-1.785278</ele>
                <time>2006-08-26T06:16:37Z</time>
            </trkpt>
            <trkpt lon="100.488082" lat="13.931997">
                <ele>-1.785278</ele>
                <time>2006-08-26T06:16:40Z</time>
            </trkpt>
            <trkpt lon="100.488251" lat="13.931919">
                <ele>-2.265991</ele>
                <time>2006-08-26T06:16:44Z</time>
            </trkpt>
            <trkpt lon="100.488405" lat="13.931595">
                <ele>-2.746704</ele>
                <time>2006-08-26T06:16:51Z</time>
            </trkpt>
            <trkpt lon="100.488666" lat="13.931525">
                <ele>-2.746704</ele>
                <time>2006-08-26T06:16:57Z</time>
            </trkpt>
            <trkpt lon="100.489087" lat="13.931751">
                <ele>-2.265991</ele>
                <time>2006-08-26T06:17:06Z</time>
            </trkpt>
            <trkpt lon="100.489295" lat="13.931785">
                <ele>-2.265991</ele>
                <time>2006-08-26T06:17:10Z</time>
            </trkpt>
            <trkpt lon="100.489489" lat="13.931847">
                <ele>-1.785278</ele>
                <time>2006-08-26T06:17:14Z</time>
            </trkpt>
            <trkpt lon="100.490415" lat="13.932415">
                <ele>-1.304688</ele>
                <time>2006-08-26T06:17:33Z</time>
            </trkpt>
            <trkpt lon="100.490681" lat="13.932635">
                <ele>-0.824097</ele>
                <time>2006-08-26T06:17:39Z</time>
            </trkpt>
            <trkpt lon="100.490929" lat="13.932582">
                <ele>-0.824097</ele>
                <time>2006-08-26T06:17:44Z</time>
            </trkpt>
            <trkpt lon="100.491934" lat="13.932040">
                <ele>-1.304688</ele>
                <time>2006-08-26T06:18:05Z</time>
            </trkpt>
            <trkpt lon="100.492073" lat="13.931969">
                <ele>-1.785278</ele>
                <time>2006-08-26T06:18:08Z</time>
            </trkpt>
            <trkpt lon="100.492136" lat="13.931724">
                <ele>-1.785278</ele>
                <time>2006-08-26T06:18:14Z</time>
            </trkpt>
            <trkpt lon="100.492087" lat="13.931580">
                <ele>-1.785278</ele>
                <time>2006-08-26T06:18:17Z</time>
            </trkpt>
            <trkpt lon="100.492168" lat="13.931363">
                <ele>-1.785278</ele>
                <time>2006-08-26T06:18:22Z</time>
            </trkpt>
            <trkpt lon="100.492231" lat="13.931299">
                <ele>-2.265991</ele>
                <time>2006-08-26T06:18:24Z</time>
            </trkpt>
            <trkpt lon="100.492367" lat="13.931351">
                <ele>-1.785278</ele>
                <time>2006-08-26T06:18:29Z</time>
            </trkpt>
            <trkpt lon="100.492464" lat="13.931440">
                <ele>-1.785278</ele>
                <time>2006-08-26T06:18:32Z</time>
            </trkpt>
            <trkpt lon="100.492540" lat="13.931495">
                <ele>-1.785278</ele>
                <time>2006-08-26T06:18:34Z</time>
            </trkpt>
            <trkpt lon="100.493270" lat="13.932214">
                <ele>-1.785278</ele>
                <time>2006-08-26T06:18:52Z</time>
            </trkpt>
            <trkpt lon="100.494239" lat="13.933146">
                <ele>-1.785278</ele>
                <time>2006-08-26T06:19:13Z</time>
            </trkpt>
            <trkpt lon="100.495509" lat="13.934493">
                <ele>-0.824097</ele>
                <time>2006-08-26T06:19:40Z</time>
            </trkpt>
            <trkpt lon="100.496355" lat="13.935712">
                <ele>-1.304688</ele>
                <time>2006-08-26T06:20:03Z</time>
            </trkpt>
            <trkpt lon="100.497272" lat="13.936788">
                <ele>-0.824097</ele>
                <time>2006-08-26T06:20:26Z</time>
            </trkpt>
            <trkpt lon="100.497643" lat="13.937217">
                <ele>-0.343384</ele>
                <time>2006-08-26T06:20:35Z</time>
            </trkpt>
            <trkpt lon="100.498185" lat="13.938142">
                <ele>1.098633</ele>
                <time>2006-08-26T06:20:54Z</time>
            </trkpt>
            <trkpt lon="100.498743" lat="13.938879">
                <ele>-0.343384</ele>
                <time>2006-08-26T06:21:10Z</time>
            </trkpt>
            <trkpt lon="100.499502" lat="13.939981">
                <ele>0.137451</ele>
                <time>2006-08-26T06:21:32Z</time>
            </trkpt>
            <trkpt lon="100.500277" lat="13.940963">
                <ele>1.098633</ele>
                <time>2006-08-26T06:21:53Z</time>
            </trkpt>
            <trkpt lon="100.501125" lat="13.941943">
                <ele>1.098633</ele>
                <time>2006-08-26T06:22:14Z</time>
            </trkpt>
            <trkpt lon="100.501778" lat="13.943000">
                <ele>0.618042</ele>
                <time>2006-08-26T06:22:35Z</time>
            </trkpt>
            <trkpt lon="100.502202" lat="13.943631">
                <ele>1.579346</ele>
                <time>2006-08-26T06:22:49Z</time>
            </trkpt>
            <trkpt lon="100.502117" lat="13.943806">
                <ele>1.579346</ele>
                <time>2006-08-26T06:22:54Z</time>
            </trkpt>
            <trkpt lon="100.501200" lat="13.944414">
                <ele>-0.824097</ele>
                <time>2006-08-26T06:23:13Z</time>
            </trkpt>
            <trkpt lon="100.500247" lat="13.945171">
                <ele>-0.343384</ele>
                <time>2006-08-26T06:23:33Z</time>
            </trkpt>
            <trkpt lon="100.499604" lat="13.945813">
                <ele>0.618042</ele>
                <time>2006-08-26T06:23:48Z</time>
            </trkpt>
            <trkpt lon="100.499516" lat="13.946040">
                <ele>0.618042</ele>
                <time>2006-08-26T06:23:52Z</time>
            </trkpt>
            <trkpt lon="100.499523" lat="13.946790">
                <ele>2.060059</ele>
                <time>2006-08-26T06:24:04Z</time>
            </trkpt>
            <trkpt lon="100.499934" lat="13.947693">
                <ele>1.579346</ele>
                <time>2006-08-26T06:24:20Z</time>
            </trkpt>
            <trkpt lon="100.500720" lat="13.948604">
                <ele>0.618042</ele>
                <time>2006-08-26T06:24:40Z</time>
            </trkpt>
            <trkpt lon="100.501188" lat="13.949152">
                <ele>1.098633</ele>
                <time>2006-08-26T06:24:56Z</time>
            </trkpt>
            <trkpt lon="100.501364" lat="13.949340">
                <ele>3.021240</ele>
                <time>2006-08-26T06:25:07Z</time>
            </trkpt>
            <trkpt lon="100.501374" lat="13.949337">
                <ele>3.501953</ele>
                <time>2006-08-26T06:25:20Z</time>
            </trkpt>
            <trkpt lon="100.501378" lat="13.949252">
                <ele>3.021240</ele>
                <time>2006-08-26T06:25:25Z</time>
            </trkpt>
            <trkpt lon="100.500910" lat="13.948769">
                <ele>4.463257</ele>
                <time>2006-08-26T06:25:41Z</time>
            </trkpt>
            <trkpt lon="100.500533" lat="13.948362">
                <ele>3.982666</ele>
                <time>2006-08-26T06:25:57Z</time>
            </trkpt>
            <trkpt lon="100.500016" lat="13.947722">
                <ele>4.463257</ele>
                <time>2006-08-26T06:26:16Z</time>
            </trkpt>
            <trkpt lon="100.499685" lat="13.947225">
                <ele>5.424561</ele>
                <time>2006-08-26T06:26:28Z</time>
            </trkpt>
            <trkpt lon="100.499549" lat="13.946849">
                <ele>4.463257</ele>
                <time>2006-08-26T06:26:36Z</time>
            </trkpt>
            <trkpt lon="100.499521" lat="13.946642">
                <ele>3.982666</ele>
                <time>2006-08-26T06:26:40Z</time>
            </trkpt>
            <trkpt lon="100.499502" lat="13.946193">
                <ele>3.021240</ele>
                <time>2006-08-26T06:26:49Z</time>
            </trkpt>
            <trkpt lon="100.499287" lat="13.946097">
                <ele>3.021240</ele>
                <time>2006-08-26T06:26:56Z</time>
            </trkpt>
            <trkpt lon="100.499255" lat="13.946129">
                <ele>3.021240</ele>
                <time>2006-08-26T06:26:57Z</time>
            </trkpt>
            <trkpt lon="100.498618" lat="13.946784">
                <ele>1.579346</ele>
                <time>2006-08-26T06:27:14Z</time>
            </trkpt>
            <trkpt lon="100.497631" lat="13.947792">
                <ele>0.618042</ele>
                <time>2006-08-26T06:27:39Z</time>
            </trkpt>
            <trkpt lon="100.496642" lat="13.948809">
                <ele>0.137451</ele>
                <time>2006-08-26T06:28:03Z</time>
            </trkpt>
            <trkpt lon="100.495733" lat="13.949786">
                <ele>-0.343384</ele>
                <time>2006-08-26T06:28:24Z</time>
            </trkpt>
            <trkpt lon="100.494883" lat="13.950665">
                <ele>-1.304688</ele>
                <time>2006-08-26T06:28:44Z</time>
            </trkpt>
            <trkpt lon="100.494242" lat="13.951332">
                <ele>-0.824097</ele>
                <time>2006-08-26T06:29:02Z</time>
            </trkpt>
            <trkpt lon="100.493600" lat="13.951997">
                <ele>0.137451</ele>
                <time>2006-08-26T06:29:23Z</time>
            </trkpt>
            <trkpt lon="100.492922" lat="13.952720">
                <ele>-0.343384</ele>
                <time>2006-08-26T06:29:44Z</time>
            </trkpt>
            <trkpt lon="100.492162" lat="13.953542">
                <ele>0.618042</ele>
                <time>2006-08-26T06:30:04Z</time>
            </trkpt>
            <trkpt lon="100.491209" lat="13.954550">
                <ele>1.098633</ele>
                <time>2006-08-26T06:30:28Z</time>
            </trkpt>
            <trkpt lon="100.490443" lat="13.955372">
                <ele>2.540649</ele>
                <time>2006-08-26T06:30:48Z</time>
            </trkpt>
            <trkpt lon="100.489971" lat="13.955892">
                <ele>3.021240</ele>
                <time>2006-08-26T06:31:04Z</time>
            </trkpt>
            <trkpt lon="100.489720" lat="13.956111">
                <ele>3.501953</ele>
                <time>2006-08-26T06:31:11Z</time>
            </trkpt>
            <trkpt lon="100.489568" lat="13.956222">
                <ele>2.060059</ele>
                <time>2006-08-26T06:31:15Z</time>
            </trkpt>
            <trkpt lon="100.488851" lat="13.957010">
                <ele>2.540649</ele>
                <time>2006-08-26T06:31:36Z</time>
            </trkpt>
            <trkpt lon="100.488038" lat="13.957886">
                <ele>2.540649</ele>
                <time>2006-08-26T06:31:56Z</time>
            </trkpt>
            <trkpt lon="100.487235" lat="13.958748">
                <ele>2.060059</ele>
                <time>2006-08-26T06:32:16Z</time>
            </trkpt>
            <trkpt lon="100.486534" lat="13.959518">
                <ele>4.463257</ele>
                <time>2006-08-26T06:32:34Z</time>
            </trkpt>
            <trkpt lon="100.485661" lat="13.960459">
                <ele>3.501953</ele>
                <time>2006-08-26T06:32:56Z</time>
            </trkpt>
            <trkpt lon="100.484745" lat="13.961445">
                <ele>3.982666</ele>
                <time>2006-08-26T06:33:19Z</time>
            </trkpt>
            <trkpt lon="100.483857" lat="13.962389">
                <ele>4.463257</ele>
                <time>2006-08-26T06:33:41Z</time>
            </trkpt>
            <trkpt lon="100.482886" lat="13.963443">
                <ele>3.982666</ele>
                <time>2006-08-26T06:34:07Z</time>
            </trkpt>
            <trkpt lon="100.482118" lat="13.964283">
                <ele>3.501953</ele>
                <time>2006-08-26T06:34:29Z</time>
            </trkpt>
            <trkpt lon="100.481464" lat="13.964990">
                <ele>3.021240</ele>
                <time>2006-08-26T06:34:47Z</time>
            </trkpt>
            <trkpt lon="100.480511" lat="13.966026">
                <ele>3.501953</ele>
                <time>2006-08-26T06:35:12Z</time>
            </trkpt>
            <trkpt lon="100.479777" lat="13.966796">
                <ele>2.060059</ele>
                <time>2006-08-26T06:35:31Z</time>
            </trkpt>
            <trkpt lon="100.478977" lat="13.967671">
                <ele>2.540649</ele>
                <time>2006-08-26T06:35:53Z</time>
            </trkpt>
            <trkpt lon="100.478085" lat="13.968626">
                <ele>2.540649</ele>
                <time>2006-08-26T06:36:18Z</time>
            </trkpt>
            <trkpt lon="100.477105" lat="13.969622">
                <ele>2.540649</ele>
                <time>2006-08-26T06:36:44Z</time>
            </trkpt>
            <trkpt lon="100.476400" lat="13.970351">
                <ele>1.098633</ele>
                <time>2006-08-26T06:37:03Z</time>
            </trkpt>
            <trkpt lon="100.475566" lat="13.971267">
                <ele>-0.343384</ele>
                <time>2006-08-26T06:37:26Z</time>
            </trkpt>
            <trkpt lon="100.474688" lat="13.972203">
                <ele>-0.343384</ele>
                <time>2006-08-26T06:37:50Z</time>
            </trkpt>
            <trkpt lon="100.473963" lat="13.972980">
                <ele>-0.343384</ele>
                <time>2006-08-26T06:38:10Z</time>
            </trkpt>
            <trkpt lon="100.473162" lat="13.973791">
                <ele>1.098633</ele>
                <time>2006-08-26T06:38:31Z</time>
            </trkpt>
            <trkpt lon="100.472279" lat="13.974696">
                <ele>1.098633</ele>
                <time>2006-08-26T06:38:55Z</time>
            </trkpt>
            <trkpt lon="100.471493" lat="13.975481">
                <ele>0.137451</ele>
                <time>2006-08-26T06:39:15Z</time>
            </trkpt>
            <trkpt lon="100.470686" lat="13.976228">
                <ele>-0.824097</ele>
                <time>2006-08-26T06:39:35Z</time>
            </trkpt>
            <trkpt lon="100.469780" lat="13.977085">
                <ele>-0.343384</ele>
                <time>2006-08-26T06:39:58Z</time>
            </trkpt>
            <trkpt lon="100.468856" lat="13.977929">
                <ele>2.060059</ele>
                <time>2006-08-26T06:40:20Z</time>
            </trkpt>
            <trkpt lon="100.468072" lat="13.978712">
                <ele>0.137451</ele>
                <time>2006-08-26T06:40:41Z</time>
            </trkpt>
            <trkpt lon="100.467250" lat="13.979664">
                <ele>-1.785278</ele>
                <time>2006-08-26T06:41:04Z</time>
            </trkpt>
            <trkpt lon="100.466947" lat="13.980457">
                <ele>0.618042</ele>
                <time>2006-08-26T06:41:19Z</time>
            </trkpt>
            <trkpt lon="100.466658" lat="13.981554">
                <ele>1.579346</ele>
                <time>2006-08-26T06:41:39Z</time>
            </trkpt>
            <trkpt lon="100.466307" lat="13.982699">
                <ele>0.137451</ele>
                <time>2006-08-26T06:42:00Z</time>
            </trkpt>
            <trkpt lon="100.466190" lat="13.983089">
                <ele>0.137451</ele>
                <time>2006-08-26T06:42:09Z</time>
            </trkpt>
            <trkpt lon="100.466284" lat="13.983181">
                <ele>0.137451</ele>
                <time>2006-08-26T06:42:13Z</time>
            </trkpt>
            <trkpt lon="100.466415" lat="13.983222">
                <ele>0.618042</ele>
                <time>2006-08-26T06:42:16Z</time>
            </trkpt>
            <trkpt lon="100.466773" lat="13.983311">
                <ele>0.137451</ele>
                <time>2006-08-26T06:42:23Z</time>
            </trkpt>
            <trkpt lon="100.467414" lat="13.983396">
                <ele>-1.304688</ele>
                <time>2006-08-26T06:42:35Z</time>
            </trkpt>
            <trkpt lon="100.467505" lat="13.983541">
                <ele>-0.824097</ele>
                <time>2006-08-26T06:42:39Z</time>
            </trkpt>
            <trkpt lon="100.467342" lat="13.984261">
                <ele>-0.343384</ele>
                <time>2006-08-26T06:42:53Z</time>
            </trkpt>
            <trkpt lon="100.466974" lat="13.984773">
                <ele>-0.343384</ele>
                <time>2006-08-26T06:43:05Z</time>
            </trkpt>
            <trkpt lon="100.466636" lat="13.985230">
                <ele>0.137451</ele>
                <time>2006-08-26T06:43:19Z</time>
            </trkpt>
            <trkpt lon="100.466597" lat="13.985299">
                <ele>1.098633</ele>
                <time>2006-08-26T06:43:28Z</time>
            </trkpt>
            <trkpt lon="100.466614" lat="13.985303">
                <ele>2.540649</ele>
                <time>2006-08-26T06:43:46Z</time>
            </trkpt>
            <trkpt lon="100.466716" lat="13.985025">
                <ele>1.098633</ele>
                <time>2006-08-26T06:43:59Z</time>
            </trkpt>
            <trkpt lon="100.467013" lat="13.984857">
                <ele>1.098633</ele>
                <time>2006-08-26T06:44:10Z</time>
            </trkpt>
            <trkpt lon="100.467643" lat="13.984972">
                <ele>0.137451</ele>
                <time>2006-08-26T06:44:24Z</time>
            </trkpt>
            <trkpt lon="100.468724" lat="13.985205">
                <ele>0.137451</ele>
                <time>2006-08-26T06:44:43Z</time>
            </trkpt>
            <trkpt lon="100.469685" lat="13.985695">
                <ele>1.579346</ele>
                <time>2006-08-26T06:44:59Z</time>
            </trkpt>
            <trkpt lon="100.470550" lat="13.986228">
                <ele>2.060059</ele>
                <time>2006-08-26T06:45:16Z</time>
            </trkpt>
            <trkpt lon="100.471004" lat="13.986507">
                <ele>2.540649</ele>
                <time>2006-08-26T06:45:25Z</time>
            </trkpt>
            <trkpt lon="100.471206" lat="13.986450">
                <ele>2.060059</ele>
                <time>2006-08-26T06:45:30Z</time>
            </trkpt>
            <trkpt lon="100.471438" lat="13.986148">
                <ele>1.579346</ele>
                <time>2006-08-26T06:45:38Z</time>
            </trkpt>
            <trkpt lon="100.471633" lat="13.986156">
                <ele>1.579346</ele>
                <time>2006-08-26T06:45:43Z</time>
            </trkpt>
            <trkpt lon="100.472350" lat="13.986607">
                <ele>1.579346</ele>
                <time>2006-08-26T06:46:00Z</time>
            </trkpt>
            <trkpt lon="100.472496" lat="13.986566">
                <ele>2.060059</ele>
                <time>2006-08-26T06:46:04Z</time>
            </trkpt>
            <trkpt lon="100.473243" lat="13.985882">
                <ele>-0.343384</ele>
                <time>2006-08-26T06:46:25Z</time>
            </trkpt>
            <trkpt lon="100.473754" lat="13.985426">
                <ele>-0.824097</ele>
                <time>2006-08-26T06:46:37Z</time>
            </trkpt>
            <trkpt lon="100.473931" lat="13.985424">
                <ele>-0.824097</ele>
                <time>2006-08-26T06:46:41Z</time>
            </trkpt>
            <trkpt lon="100.474314" lat="13.985338">
                <ele>-1.304688</ele>
                <time>2006-08-26T06:46:49Z</time>
            </trkpt>
            <trkpt lon="100.475331" lat="13.984768">
                <ele>-2.265991</ele>
                <time>2006-08-26T06:47:09Z</time>
            </trkpt>
            <trkpt lon="100.476416" lat="13.984286">
                <ele>-0.343384</ele>
                <time>2006-08-26T06:47:29Z</time>
            </trkpt>
            <trkpt lon="100.477466" lat="13.984073">
                <ele>2.060059</ele>
                <time>2006-08-26T06:47:47Z</time>
            </trkpt>
            <trkpt lon="100.478034" lat="13.991479">
                <ele>37.148071</ele>
                <time>2006-08-26T06:56:32Z</time>
            </trkpt>
            <trkpt lon="100.478223" lat="13.991203">
                <ele>3.982666</ele>
                <time>2006-08-26T06:56:45Z</time>
            </trkpt>
            <trkpt lon="100.478321" lat="13.991056">
                <ele>2.540649</ele>
                <time>2006-08-26T06:57:03Z</time>
            </trkpt>
            <trkpt lon="100.478325" lat="13.991034">
                <ele>2.540649</ele>
                <time>2006-08-26T06:57:06Z</time>
            </trkpt>
            <trkpt lon="100.478350" lat="13.990988">
                <ele>2.540649</ele>
                <time>2006-08-26T06:57:10Z</time>
            </trkpt>
            <trkpt lon="100.478375" lat="13.990959">
                <ele>5.905273</ele>
                <time>2006-08-26T06:57:29Z</time>
            </trkpt>
            <trkpt lon="100.478432" lat="13.990885">
                <ele>4.463257</ele>
                <time>2006-08-26T06:57:51Z</time>
            </trkpt>
            <trkpt lon="100.478473" lat="13.990912">
                <ele>3.501953</ele>
                <time>2006-08-26T06:58:07Z</time>
            </trkpt>
            <trkpt lon="100.478501" lat="13.990941">
                <ele>3.501953</ele>
                <time>2006-08-26T06:58:16Z</time>
            </trkpt>
            <trkpt lon="100.478750" lat="13.991205">
                <ele>0.618042</ele>
                <time>2006-08-26T06:58:30Z</time>
            </trkpt>
            <trkpt lon="100.479160" lat="13.991685">
                <ele>-0.343384</ele>
                <time>2006-08-26T06:58:46Z</time>
            </trkpt>
            <trkpt lon="100.479695" lat="13.992367">
                <ele>1.098633</ele>
                <time>2006-08-26T06:59:08Z</time>
            </trkpt>
            <trkpt lon="100.479764" lat="13.992478">
                <ele>1.098633</ele>
                <time>2006-08-26T06:59:12Z</time>
            </trkpt>
            <trkpt lon="100.479738" lat="13.992575">
                <ele>1.579346</ele>
                <time>2006-08-26T06:59:15Z</time>
            </trkpt>
            <trkpt lon="100.479377" lat="13.992816">
                <ele>1.579346</ele>
                <time>2006-08-26T06:59:24Z</time>
            </trkpt>
            <trkpt lon="100.478492" lat="13.993329">
                <ele>0.618042</ele>
                <time>2006-08-26T06:59:44Z</time>
            </trkpt>
            <trkpt lon="100.477569" lat="13.993930">
                <ele>3.021240</ele>
                <time>2006-08-26T07:00:04Z</time>
            </trkpt>
            <trkpt lon="100.477191" lat="13.994149">
                <ele>2.540649</ele>
                <time>2006-08-26T07:00:12Z</time>
            </trkpt>
            <trkpt lon="100.475883" lat="13.994401">
                <ele>0.618042</ele>
                <time>2006-08-26T07:00:37Z</time>
            </trkpt>
            <trkpt lon="100.475037" lat="13.994681">
                <ele>2.060059</ele>
                <time>2006-08-26T07:00:54Z</time>
            </trkpt>
            <trkpt lon="100.474044" lat="13.995220">
                <ele>3.021240</ele>
                <time>2006-08-26T07:01:16Z</time>
            </trkpt>
            <trkpt lon="100.473057" lat="13.995891">
                <ele>5.424561</ele>
                <time>2006-08-26T07:01:39Z</time>
            </trkpt>
            <trkpt lon="100.472419" lat="13.996241">
                <ele>4.943848</ele>
                <time>2006-08-26T07:01:53Z</time>
            </trkpt>
            <trkpt lon="100.472362" lat="13.996390">
                <ele>4.463257</ele>
                <time>2006-08-26T07:01:58Z</time>
            </trkpt>
            <trkpt lon="100.472850" lat="13.997427">
                <ele>-0.824097</ele>
                <time>2006-08-26T07:02:19Z</time>
            </trkpt>
            <trkpt lon="100.473127" lat="13.998067">
                <ele>-0.343384</ele>
                <time>2006-08-26T07:02:31Z</time>
            </trkpt>
            <trkpt lon="100.473080" lat="13.998327">
                <ele>0.618042</ele>
                <time>2006-08-26T07:02:36Z</time>
            </trkpt>
            <trkpt lon="100.472081" lat="13.999265">
                <ele>4.463257</ele>
                <time>2006-08-26T07:03:01Z</time>
            </trkpt>
            <trkpt lon="100.471154" lat="14.000133">
                <ele>3.501953</ele>
                <time>2006-08-26T07:03:24Z</time>
            </trkpt>
            <trkpt lon="100.470383" lat="14.000678">
                <ele>4.463257</ele>
                <time>2006-08-26T07:03:40Z</time>
            </trkpt>
            <trkpt lon="100.469668" lat="14.001084">
                <ele>3.501953</ele>
                <time>2006-08-26T07:03:56Z</time>
            </trkpt>
            <trkpt lon="100.468615" lat="14.001602">
                <ele>3.501953</ele>
                <time>2006-08-26T07:04:18Z</time>
            </trkpt>
            <trkpt lon="100.467470" lat="14.002011">
                <ele>3.982666</ele>
                <time>2006-08-26T07:04:41Z</time>
            </trkpt>
            <trkpt lon="100.466534" lat="14.002312">
                <ele>3.501953</ele>
                <time>2006-08-26T07:05:02Z</time>
            </trkpt>
            <trkpt lon="100.466289" lat="14.002377">
                <ele>3.501953</ele>
                <time>2006-08-26T07:05:07Z</time>
            </trkpt>
            <trkpt lon="100.466092" lat="14.002448">
                <ele>3.982666</ele>
                <time>2006-08-26T07:05:11Z</time>
            </trkpt>
            <trkpt lon="100.465996" lat="14.002712">
                <ele>3.501953</ele>
                <time>2006-08-26T07:05:18Z</time>
            </trkpt>
            <trkpt lon="100.466307" lat="14.003528">
                <ele>4.463257</ele>
                <time>2006-08-26T07:05:36Z</time>
            </trkpt>
            <trkpt lon="100.466634" lat="14.004417">
                <ele>3.021240</ele>
                <time>2006-08-26T07:05:54Z</time>
            </trkpt>
            <trkpt lon="100.466983" lat="14.005296">
                <ele>0.137451</ele>
                <time>2006-08-26T07:06:12Z</time>
            </trkpt>
            <trkpt lon="100.467505" lat="14.006656">
                <ele>0.137451</ele>
                <time>2006-08-26T07:06:36Z</time>
            </trkpt>
            <trkpt lon="100.468020" lat="14.008067">
                <ele>-0.824097</ele>
                <time>2006-08-26T07:07:01Z</time>
            </trkpt>
            <trkpt lon="100.468495" lat="14.009221">
                <ele>-2.265991</ele>
                <time>2006-08-26T07:07:23Z</time>
            </trkpt>
            <trkpt lon="100.468510" lat="14.009292">
                <ele>-2.265991</ele>
                <time>2006-08-26T07:07:25Z</time>
            </trkpt>
            <trkpt lon="100.468430" lat="14.009328">
                <ele>-2.265991</ele>
                <time>2006-08-26T07:07:29Z</time>
            </trkpt>
            <trkpt lon="100.468178" lat="14.009375">
                <ele>-0.824097</ele>
                <time>2006-08-26T07:07:36Z</time>
            </trkpt>
            <trkpt lon="100.467307" lat="14.009574">
                <ele>3.021240</ele>
                <time>2006-08-26T07:07:54Z</time>
            </trkpt>
            <trkpt lon="100.466239" lat="14.009808">
                <ele>4.463257</ele>
                <time>2006-08-26T07:08:14Z</time>
            </trkpt>
            <trkpt lon="100.464998" lat="14.010122">
                <ele>2.540649</ele>
                <time>2006-08-26T07:08:37Z</time>
            </trkpt>
            <trkpt lon="100.463920" lat="14.010352">
                <ele>3.982666</ele>
                <time>2006-08-26T07:08:58Z</time>
            </trkpt>
            <trkpt lon="100.462826" lat="14.010625">
                <ele>3.982666</ele>
                <time>2006-08-26T07:09:19Z</time>
            </trkpt>
            <trkpt lon="100.461538" lat="14.010916">
                <ele>4.463257</ele>
                <time>2006-08-26T07:09:44Z</time>
            </trkpt>
            <trkpt lon="100.460166" lat="14.011278">
                <ele>2.540649</ele>
                <time>2006-08-26T07:10:10Z</time>
            </trkpt>
            <trkpt lon="100.459127" lat="14.011684">
                <ele>4.943848</ele>
                <time>2006-08-26T07:10:30Z</time>
            </trkpt>
            <trkpt lon="100.458142" lat="14.012134">
                <ele>3.982666</ele>
                <time>2006-08-26T07:10:50Z</time>
            </trkpt>
            <trkpt lon="100.457066" lat="14.012558">
                <ele>8.308594</ele>
                <time>2006-08-26T07:11:11Z</time>
            </trkpt>
            <trkpt lon="100.455754" lat="14.013092">
                <ele>11.673218</ele>
                <time>2006-08-26T07:11:36Z</time>
            </trkpt>
            <trkpt lon="100.454534" lat="14.013557">
                <ele>12.153809</ele>
                <time>2006-08-26T07:11:59Z</time>
            </trkpt>
            <trkpt lon="100.454113" lat="14.013750">
                <ele>12.153809</ele>
                <time>2006-08-26T07:12:07Z</time>
            </trkpt>
            <trkpt lon="100.453055" lat="14.014171">
                <ele>9.750610</ele>
                <time>2006-08-26T07:12:27Z</time>
            </trkpt>
            <trkpt lon="100.452065" lat="14.014583">
                <ele>7.827881</ele>
                <time>2006-08-26T07:12:45Z</time>
            </trkpt>
            <trkpt lon="100.451895" lat="14.014653">
                <ele>7.827881</ele>
                <time>2006-08-26T07:12:48Z</time>
            </trkpt>
            <trkpt lon="100.451751" lat="14.014697">
                <ele>7.827881</ele>
                <time>2006-08-26T07:12:52Z</time>
            </trkpt>
            <trkpt lon="100.451129" lat="14.014959">
                <ele>8.789185</ele>
                <time>2006-08-26T07:13:07Z</time>
            </trkpt>
            <trkpt lon="100.450472" lat="14.015204">
                <ele>7.347168</ele>
                <time>2006-08-26T07:13:22Z</time>
            </trkpt>
            <trkpt lon="100.450292" lat="14.015265">
                <ele>7.827881</ele>
                <time>2006-08-26T07:13:26Z</time>
            </trkpt>
            <trkpt lon="100.450171" lat="14.015322">
                <ele>6.866455</ele>
                <time>2006-08-26T07:13:29Z</time>
            </trkpt>
            <trkpt lon="100.449993" lat="14.015184">
                <ele>6.385864</ele>
                <time>2006-08-26T07:13:36Z</time>
            </trkpt>
            <trkpt lon="100.449795" lat="14.014637">
                <ele>6.385864</ele>
                <time>2006-08-26T07:13:49Z</time>
            </trkpt>
            <trkpt lon="100.449524" lat="14.014567">
                <ele>5.905273</ele>
                <time>2006-08-26T07:13:56Z</time>
            </trkpt>
            <trkpt lon="100.448965" lat="14.014774">
                <ele>5.905273</ele>
                <time>2006-08-26T07:14:09Z</time>
            </trkpt>
            <trkpt lon="100.448795" lat="14.014839">
                <ele>5.424561</ele>
                <time>2006-08-26T07:14:13Z</time>
            </trkpt>
            <trkpt lon="100.448714" lat="14.014876">
                <ele>5.424561</ele>
                <time>2006-08-26T07:14:15Z</time>
            </trkpt>
            <trkpt lon="100.447797" lat="14.015204">
                <ele>6.385864</ele>
                <time>2006-08-26T07:14:37Z</time>
            </trkpt>
            <trkpt lon="100.447152" lat="14.015426">
                <ele>4.943848</ele>
                <time>2006-08-26T07:14:53Z</time>
            </trkpt>
            <trkpt lon="100.446387" lat="14.015704">
                <ele>7.347168</ele>
                <time>2006-08-26T07:15:12Z</time>
            </trkpt>
            <trkpt lon="100.446080" lat="14.015817">
                <ele>7.827881</ele>
                <time>2006-08-26T07:15:20Z</time>
            </trkpt>
            <trkpt lon="100.445455" lat="14.016034">
                <ele>6.866455</ele>
                <time>2006-08-26T07:15:37Z</time>
            </trkpt>
            <trkpt lon="100.445102" lat="14.016189">
                <ele>7.827881</ele>
                <time>2006-08-26T07:15:47Z</time>
            </trkpt>
            <trkpt lon="100.444472" lat="14.016419">
                <ele>4.463257</ele>
                <time>2006-08-26T07:16:03Z</time>
            </trkpt>
            <trkpt lon="100.444144" lat="14.016533">
                <ele>3.982666</ele>
                <time>2006-08-26T07:16:12Z</time>
            </trkpt>
            <trkpt lon="100.444004" lat="14.016461">
                <ele>3.501953</ele>
                <time>2006-08-26T07:16:17Z</time>
            </trkpt>
            <trkpt lon="100.443787" lat="14.016393">
                <ele>3.021240</ele>
                <time>2006-08-26T07:16:29Z</time>
            </trkpt>
            <trkpt lon="100.443726" lat="14.016413">
                <ele>6.866455</ele>
                <time>2006-08-26T07:16:46Z</time>
            </trkpt>
            <trkpt lon="100.443637" lat="14.016409">
                <ele>5.424561</ele>
                <time>2006-08-26T07:17:10Z</time>
            </trkpt>
            <trkpt lon="100.443155" lat="14.016465">
                <ele>4.463257</ele>
                <time>2006-08-26T07:17:27Z</time>
            </trkpt>
            <trkpt lon="100.442903" lat="14.016467">
                <ele>3.021240</ele>
                <time>2006-08-26T07:17:40Z</time>
            </trkpt>
            <trkpt lon="100.442889" lat="14.016480">
                <ele>-2.746704</ele>
                <time>2006-08-26T07:18:59Z</time>
            </trkpt>
            <trkpt lon="100.442892" lat="14.016505">
                <ele>-0.824097</ele>
                <time>2006-08-26T07:19:03Z</time>
            </trkpt>
            <trkpt lon="100.442960" lat="14.016493">
                <ele>0.137451</ele>
                <time>2006-08-26T07:19:07Z</time>
            </trkpt>
            <trkpt lon="100.443513" lat="14.016426">
                <ele>1.579346</ele>
                <time>2006-08-26T07:19:26Z</time>
            </trkpt>
            <trkpt lon="100.443622" lat="14.016407">
                <ele>3.982666</ele>
                <time>2006-08-26T07:19:39Z</time>
            </trkpt>
            <trkpt lon="100.443706" lat="14.016412">
                <ele>6.385864</ele>
                <time>2006-08-26T07:20:33Z</time>
            </trkpt>
            <trkpt lon="100.443712" lat="14.016410">
                <ele>8.308594</ele>
                <time>2006-08-26T07:21:44Z</time>
            </trkpt>
            <trkpt lon="100.443706" lat="14.016389">
                <ele>7.347168</ele>
                <time>2006-08-26T07:22:22Z</time>
            </trkpt>
            <trkpt lon="100.443714" lat="14.016378">
                <ele>8.789185</ele>
                <time>2006-08-26T07:22:37Z</time>
            </trkpt>
            <trkpt lon="100.443720" lat="14.016384">
                <ele>6.385864</ele>
                <time>2006-08-26T07:23:16Z</time>
            </trkpt>
            <trkpt lon="100.443720" lat="14.016383">
                <ele>3.982666</ele>
                <time>2006-08-26T07:23:43Z</time>
            </trkpt>
            <trkpt lon="100.443730" lat="14.016383">
                <ele>5.905273</ele>
                <time>2006-08-26T07:24:49Z</time>
            </trkpt>
            <trkpt lon="100.443716" lat="14.016396">
                <ele>1.579346</ele>
                <time>2006-08-26T07:26:42Z</time>
            </trkpt>
            <trkpt lon="100.443729" lat="14.016389">
                <ele>9.750610</ele>
                <time>2006-08-26T07:29:29Z</time>
            </trkpt>
            <trkpt lon="100.443720" lat="14.016386">
                <ele>3.982666</ele>
                <time>2006-08-26T07:31:50Z</time>
            </trkpt>
            <trkpt lon="100.443708" lat="14.016389">
                <ele>5.424561</ele>
                <time>2006-08-26T07:32:31Z</time>
            </trkpt>
            <trkpt lon="100.443722" lat="14.016376">
                <ele>4.463257</ele>
                <time>2006-08-26T07:32:45Z</time>
            </trkpt>
            <trkpt lon="100.443733" lat="14.016376">
                <ele>4.463257</ele>
                <time>2006-08-26T07:33:21Z</time>
            </trkpt>
            <trkpt lon="100.443764" lat="14.016380">
                <ele>2.540649</ele>
                <time>2006-08-26T07:33:38Z</time>
            </trkpt>
            <trkpt lon="100.443787" lat="14.016388">
                <ele>6.385864</ele>
                <time>2006-08-26T07:34:07Z</time>
            </trkpt>
            <trkpt lon="100.443801" lat="14.016381">
                <ele>6.385864</ele>
                <time>2006-08-26T07:34:15Z</time>
            </trkpt>
            <trkpt lon="100.443917" lat="14.016370">
                <ele>5.424561</ele>
                <time>2006-08-26T07:34:28Z</time>
            </trkpt>
            <trkpt lon="100.443943" lat="14.016377">
                <ele>5.424561</ele>
                <time>2006-08-26T07:34:29Z</time>
            </trkpt>
            <trkpt lon="100.443875" lat="14.016529">
                <ele>5.905273</ele>
                <time>2006-08-26T07:34:36Z</time>
            </trkpt>
            <trkpt lon="100.443506" lat="14.016607">
                <ele>6.385864</ele>
                <time>2006-08-26T07:34:49Z</time>
            </trkpt>
            <trkpt lon="100.443210" lat="14.016725">
                <ele>4.943848</ele>
                <time>2006-08-26T07:34:58Z</time>
            </trkpt>
            <trkpt lon="100.443012" lat="14.016728">
                <ele>4.943848</ele>
                <time>2006-08-26T07:35:04Z</time>
            </trkpt>
            <trkpt lon="100.442886" lat="14.016757">
                <ele>4.943848</ele>
                <time>2006-08-26T07:35:08Z</time>
            </trkpt>
            <trkpt lon="100.442857" lat="14.016855">
                <ele>5.424561</ele>
                <time>2006-08-26T07:35:12Z</time>
            </trkpt>
            <trkpt lon="100.442889" lat="14.017093">
                <ele>4.463257</ele>
                <time>2006-08-26T07:35:21Z</time>
            </trkpt>
            <trkpt lon="100.442591" lat="14.017053">
                <ele>3.982666</ele>
                <time>2006-08-26T07:35:25Z</time>
            </trkpt>
            <trkpt lon="100.442436" lat="14.017176">
                <ele>4.463257</ele>
                <time>2006-08-26T07:35:33Z</time>
            </trkpt>
            <trkpt lon="100.442472" lat="14.017617">
                <ele>3.982666</ele>
                <time>2006-08-26T07:35:45Z</time>
            </trkpt>
            <trkpt lon="100.442510" lat="14.017737">
                <ele>3.501953</ele>
                <time>2006-08-26T07:35:48Z</time>
            </trkpt>
            <trkpt lon="100.442740" lat="14.018680">
                <ele>2.540649</ele>
                <time>2006-08-26T07:36:09Z</time>
            </trkpt>
            <trkpt lon="100.442959" lat="14.019609">
                <ele>2.540649</ele>
                <time>2006-08-26T07:36:44Z</time>
            </trkpt>
            <trkpt lon="100.443009" lat="14.020050">
                <ele>3.021240</ele>
                <time>2006-08-26T07:36:54Z</time>
            </trkpt>
            <trkpt lon="100.443034" lat="14.020432">
                <ele>2.540649</ele>
                <time>2006-08-26T07:37:09Z</time>
            </trkpt>
            <trkpt lon="100.443073" lat="14.020547">
                <ele>3.021240</ele>
                <time>2006-08-26T07:37:23Z</time>
            </trkpt>
            <trkpt lon="100.443082" lat="14.020607">
                <ele>1.098633</ele>
                <time>2006-08-26T07:37:43Z</time>
            </trkpt>
            <trkpt lon="100.443030" lat="14.020301">
                <ele>2.060059</ele>
                <time>2006-08-26T07:37:59Z</time>
            </trkpt>
            <trkpt lon="100.442959" lat="14.020010">
                <ele>2.060059</ele>
                <time>2006-08-26T07:38:16Z</time>
            </trkpt>
            <trkpt lon="100.442976" lat="14.019751">
                <ele>3.021240</ele>
                <time>2006-08-26T07:38:32Z</time>
            </trkpt>
            <trkpt lon="100.443028" lat="14.019684">
                <ele>3.982666</ele>
                <time>2006-08-26T07:38:36Z</time>
            </trkpt>
            <trkpt lon="100.443408" lat="14.019516">
                <ele>3.982666</ele>
                <time>2006-08-26T07:38:51Z</time>
            </trkpt>
            <trkpt lon="100.443718" lat="14.019363">
                <ele>2.540649</ele>
                <time>2006-08-26T07:38:59Z</time>
            </trkpt>
            <trkpt lon="100.444400" lat="14.019020">
                <ele>2.060059</ele>
                <time>2006-08-26T07:39:19Z</time>
            </trkpt>
            <trkpt lon="100.444455" lat="14.019080">
                <ele>2.540649</ele>
                <time>2006-08-26T07:39:23Z</time>
            </trkpt>
            <trkpt lon="100.444475" lat="14.019151">
                <ele>2.540649</ele>
                <time>2006-08-26T07:39:39Z</time>
            </trkpt>
            <trkpt lon="100.444492" lat="14.019153">
                <ele>1.579346</ele>
                <time>2006-08-26T07:41:03Z</time>
            </trkpt>
            <trkpt lon="100.444456" lat="14.019027">
                <ele>2.060059</ele>
                <time>2006-08-26T07:41:12Z</time>
            </trkpt>
            <trkpt lon="100.444369" lat="14.019022">
                <ele>2.060059</ele>
                <time>2006-08-26T07:41:16Z</time>
            </trkpt>
            <trkpt lon="100.443832" lat="14.019278">
                <ele>2.540649</ele>
                <time>2006-08-26T07:41:30Z</time>
            </trkpt>
            <trkpt lon="100.443039" lat="14.019643">
                <ele>3.021240</ele>
                <time>2006-08-26T07:41:49Z</time>
            </trkpt>
            <trkpt lon="100.442977" lat="14.019756">
                <ele>3.021240</ele>
                <time>2006-08-26T07:41:59Z</time>
            </trkpt>
            <trkpt lon="100.443012" lat="14.019931">
                <ele>3.501953</ele>
                <time>2006-08-26T07:42:03Z</time>
            </trkpt>
            <trkpt lon="100.443146" lat="14.021278">
                <ele>-0.343384</ele>
                <time>2006-08-26T07:42:27Z</time>
            </trkpt>
            <trkpt lon="100.443295" lat="14.022603">
                <ele>-0.343384</ele>
                <time>2006-08-26T07:42:52Z</time>
            </trkpt>
            <trkpt lon="100.443418" lat="14.023591">
                <ele>1.579346</ele>
                <time>2006-08-26T07:43:12Z</time>
            </trkpt>
            <trkpt lon="100.443415" lat="14.023680">
                <ele>1.098633</ele>
                <time>2006-08-26T07:43:14Z</time>
            </trkpt>
            <trkpt lon="100.443464" lat="14.024756">
                <ele>1.579346</ele>
                <time>2006-08-26T07:43:35Z</time>
            </trkpt>
            <trkpt lon="100.443485" lat="14.026047">
                <ele>1.098633</ele>
                <time>2006-08-26T07:43:59Z</time>
            </trkpt>
            <trkpt lon="100.443499" lat="14.027224">
                <ele>1.579346</ele>
                <time>2006-08-26T07:44:21Z</time>
            </trkpt>
            <trkpt lon="100.443451" lat="14.027983">
                <ele>2.060059</ele>
                <time>2006-08-26T07:44:39Z</time>
            </trkpt>
            <trkpt lon="100.443407" lat="14.028031">
                <ele>2.060059</ele>
                <time>2006-08-26T07:44:42Z</time>
            </trkpt>
            <trkpt lon="100.443133" lat="14.028042">
                <ele>3.501953</ele>
                <time>2006-08-26T07:44:58Z</time>
            </trkpt>
            <trkpt lon="100.442902" lat="14.028044">
                <ele>2.060059</ele>
                <time>2006-08-26T07:45:09Z</time>
            </trkpt>
            <trkpt lon="100.442894" lat="14.028060">
                <ele>0.618042</ele>
                <time>2006-08-26T07:46:04Z</time>
            </trkpt>
            <trkpt lon="100.442947" lat="14.028176">
                <ele>1.098633</ele>
                <time>2006-08-26T07:46:13Z</time>
            </trkpt>
            <trkpt lon="100.442908" lat="14.028756">
                <ele>1.098633</ele>
                <time>2006-08-26T07:46:28Z</time>
            </trkpt>
            <trkpt lon="100.442841" lat="14.029504">
                <ele>0.137451</ele>
                <time>2006-08-26T07:46:43Z</time>
            </trkpt>
            <trkpt lon="100.442819" lat="14.029662">
                <ele>0.137451</ele>
                <time>2006-08-26T07:46:46Z</time>
            </trkpt>
            <trkpt lon="100.442654" lat="14.029842">
                <ele>0.137451</ele>
                <time>2006-08-26T07:46:51Z</time>
            </trkpt>
            <trkpt lon="100.442112" lat="14.030029">
                <ele>1.098633</ele>
                <time>2006-08-26T07:47:03Z</time>
            </trkpt>
            <trkpt lon="100.442013" lat="14.030313">
                <ele>1.098633</ele>
                <time>2006-08-26T07:47:10Z</time>
            </trkpt>
            <trkpt lon="100.442122" lat="14.030612">
                <ele>0.618042</ele>
                <time>2006-08-26T07:47:16Z</time>
            </trkpt>
            <trkpt lon="100.442151" lat="14.031612">
                <ele>0.137451</ele>
                <time>2006-08-26T07:47:35Z</time>
            </trkpt>
            <trkpt lon="100.442225" lat="14.032880">
                <ele>0.137451</ele>
                <time>2006-08-26T07:47:58Z</time>
            </trkpt>
            <trkpt lon="100.442165" lat="14.033895">
                <ele>-0.343384</ele>
                <time>2006-08-26T07:48:16Z</time>
            </trkpt>
            <trkpt lon="100.442188" lat="14.035141">
                <ele>-0.343384</ele>
                <time>2006-08-26T07:48:38Z</time>
            </trkpt>
            <trkpt lon="100.442222" lat="14.036509">
                <ele>-1.304688</ele>
                <time>2006-08-26T07:49:03Z</time>
            </trkpt>
            <trkpt lon="100.442316" lat="14.037513">
                <ele>-0.824097</ele>
                <time>2006-08-26T07:49:21Z</time>
            </trkpt>
            <trkpt lon="100.442465" lat="14.038479">
                <ele>-0.824097</ele>
                <time>2006-08-26T07:49:40Z</time>
            </trkpt>
            <trkpt lon="100.442516" lat="14.038754">
                <ele>-0.343384</ele>
                <time>2006-08-26T07:49:46Z</time>
            </trkpt>
            <trkpt lon="100.442395" lat="14.038873">
                <ele>-0.343384</ele>
                <time>2006-08-26T07:49:51Z</time>
            </trkpt>
            <trkpt lon="100.441537" lat="14.039212">
                <ele>1.579346</ele>
                <time>2006-08-26T07:50:10Z</time>
            </trkpt>
            <trkpt lon="100.440844" lat="14.039492">
                <ele>3.501953</ele>
                <time>2006-08-26T07:50:25Z</time>
            </trkpt>
            <trkpt lon="100.440300" lat="14.039678">
                <ele>3.501953</ele>
                <time>2006-08-26T07:50:36Z</time>
            </trkpt>
            <trkpt lon="100.439184" lat="14.040098">
                <ele>3.021240</ele>
                <time>2006-08-26T07:50:59Z</time>
            </trkpt>
            <trkpt lon="100.438074" lat="14.040514">
                <ele>3.501953</ele>
                <time>2006-08-26T07:51:21Z</time>
            </trkpt>
            <trkpt lon="100.437725" lat="14.040638">
                <ele>3.982666</ele>
                <time>2006-08-26T07:51:28Z</time>
            </trkpt>
            <trkpt lon="100.437638" lat="14.040782">
                <ele>3.501953</ele>
                <time>2006-08-26T07:51:32Z</time>
            </trkpt>
            <trkpt lon="100.437821" lat="14.041810">
                <ele>2.540649</ele>
                <time>2006-08-26T07:51:52Z</time>
            </trkpt>
            <trkpt lon="100.437865" lat="14.042118">
                <ele>2.060059</ele>
                <time>2006-08-26T07:51:58Z</time>
            </trkpt>
            <trkpt lon="100.437810" lat="14.042469">
                <ele>1.579346</ele>
                <time>2006-08-26T07:52:06Z</time>
            </trkpt>
            <trkpt lon="100.437266" lat="14.042550">
                <ele>3.501953</ele>
                <time>2006-08-26T07:52:20Z</time>
            </trkpt>
            <trkpt lon="100.436104" lat="14.042724">
                <ele>3.501953</ele>
                <time>2006-08-26T07:52:41Z</time>
            </trkpt>
            <trkpt lon="100.434985" lat="14.042837">
                <ele>4.463257</ele>
                <time>2006-08-26T07:53:01Z</time>
            </trkpt>
            <trkpt lon="100.434539" lat="14.042855">
                <ele>4.943848</ele>
                <time>2006-08-26T07:53:09Z</time>
            </trkpt>
            <trkpt lon="100.434390" lat="14.041584">
                <ele>4.943848</ele>
                <time>2006-08-26T07:53:33Z</time>
            </trkpt>
            <trkpt lon="100.434388" lat="14.040422">
                <ele>7.347168</ele>
                <time>2006-08-26T07:53:53Z</time>
            </trkpt>
            <trkpt lon="100.434389" lat="14.039196">
                <ele>6.866455</ele>
                <time>2006-08-26T07:54:14Z</time>
            </trkpt>
            <trkpt lon="100.434351" lat="14.037990">
                <ele>5.905273</ele>
                <time>2006-08-26T07:54:35Z</time>
            </trkpt>
            <trkpt lon="100.434258" lat="14.036940">
                <ele>4.943848</ele>
                <time>2006-08-26T07:54:54Z</time>
            </trkpt>
            <trkpt lon="100.433769" lat="14.036185">
                <ele>3.982666</ele>
                <time>2006-08-26T07:55:12Z</time>
            </trkpt>
            <trkpt lon="100.433100" lat="14.035451">
                <ele>3.982666</ele>
                <time>2006-08-26T07:55:32Z</time>
            </trkpt>
            <trkpt lon="100.432485" lat="14.034522">
                <ele>3.982666</ele>
                <time>2006-08-26T07:55:54Z</time>
            </trkpt>
            <trkpt lon="100.431861" lat="14.033496">
                <ele>3.501953</ele>
                <time>2006-08-26T07:56:17Z</time>
            </trkpt>
            <trkpt lon="100.431543" lat="14.032722">
                <ele>2.540649</ele>
                <time>2006-08-26T07:56:34Z</time>
            </trkpt>
            <trkpt lon="100.431335" lat="14.032638">
                <ele>3.021240</ele>
                <time>2006-08-26T07:56:40Z</time>
            </trkpt>
            <trkpt lon="100.430214" lat="14.032940">
                <ele>3.501953</ele>
                <time>2006-08-26T07:57:02Z</time>
            </trkpt>
            <trkpt lon="100.429869" lat="14.033075">
                <ele>3.021240</ele>
                <time>2006-08-26T07:57:09Z</time>
            </trkpt>
            <trkpt lon="100.429561" lat="14.033632">
                <ele>2.060059</ele>
                <time>2006-08-26T07:57:21Z</time>
            </trkpt>
            <trkpt lon="100.429119" lat="14.034667">
                <ele>1.579346</ele>
                <time>2006-08-26T07:57:41Z</time>
            </trkpt>
            <trkpt lon="100.429094" lat="14.034716">
                <ele>1.579346</ele>
                <time>2006-08-26T07:57:42Z</time>
            </trkpt>
            <trkpt lon="100.428612" lat="14.035813">
                <ele>0.137451</ele>
                <time>2006-08-26T07:58:03Z</time>
            </trkpt>
            <trkpt lon="100.428296" lat="14.036535">
                <ele>-0.824097</ele>
                <time>2006-08-26T07:58:17Z</time>
            </trkpt>
            <trkpt lon="100.428030" lat="14.037504">
                <ele>-0.343384</ele>
                <time>2006-08-26T07:58:35Z</time>
            </trkpt>
            <trkpt lon="100.427998" lat="14.037610">
                <ele>0.137451</ele>
                <time>2006-08-26T07:58:37Z</time>
            </trkpt>
            <trkpt lon="100.427723" lat="14.037852">
                <ele>0.137451</ele>
                <time>2006-08-26T07:58:44Z</time>
            </trkpt>
            <trkpt lon="100.426753" lat="14.038048">
                <ele>1.579346</ele>
                <time>2006-08-26T07:59:02Z</time>
            </trkpt>
            <trkpt lon="100.425500" lat="14.038459">
                <ele>1.579346</ele>
                <time>2006-08-26T07:59:25Z</time>
            </trkpt>
            <trkpt lon="100.424439" lat="14.038934">
                <ele>0.618042</ele>
                <time>2006-08-26T07:59:46Z</time>
            </trkpt>
            <trkpt lon="100.423438" lat="14.039356">
                <ele>0.137451</ele>
                <time>2006-08-26T08:00:06Z</time>
            </trkpt>
            <trkpt lon="100.423322" lat="14.039509">
                <ele>0.137451</ele>
                <time>2006-08-26T08:00:10Z</time>
            </trkpt>
            <trkpt lon="100.423180" lat="14.039888">
                <ele>-0.824097</ele>
                <time>2006-08-26T08:00:18Z</time>
            </trkpt>
            <trkpt lon="100.423022" lat="14.039941">
                <ele>-1.304688</ele>
                <time>2006-08-26T08:00:22Z</time>
            </trkpt>
            <trkpt lon="100.422888" lat="14.039875">
                <ele>-1.304688</ele>
                <time>2006-08-26T08:00:25Z</time>
            </trkpt>
            <trkpt lon="100.423135" lat="14.040188">
                <ele>-1.785278</ele>
                <time>2006-08-26T08:00:33Z</time>
            </trkpt>
            <trkpt lon="100.422906" lat="14.040137">
                <ele>-1.785278</ele>
                <time>2006-08-26T08:00:37Z</time>
            </trkpt>
            <trkpt lon="100.421504" lat="14.039599">
                <ele>0.137451</ele>
                <time>2006-08-26T08:00:57Z</time>
            </trkpt>
            <trkpt lon="100.421404" lat="14.039611">
                <ele>0.137451</ele>
                <time>2006-08-26T08:00:59Z</time>
            </trkpt>
            <trkpt lon="100.421230" lat="14.039598">
                <ele>0.618042</ele>
                <time>2006-08-26T08:01:03Z</time>
            </trkpt>
            <trkpt lon="100.421108" lat="14.039565">
                <ele>-0.824097</ele>
                <time>2006-08-26T08:01:07Z</time>
            </trkpt>
            <trkpt lon="100.421000" lat="14.039689">
                <ele>-2.265991</ele>
                <time>2006-08-26T08:01:11Z</time>
            </trkpt>
            <trkpt lon="100.420793" lat="14.040069">
                <ele>-3.707886</ele>
                <time>2006-08-26T08:01:20Z</time>
            </trkpt>
            <trkpt lon="100.420545" lat="14.040518">
                <ele>-5.630493</ele>
                <time>2006-08-26T08:01:36Z</time>
            </trkpt>
            <trkpt lon="100.420506" lat="14.040543">
                <ele>-5.630493</ele>
                <time>2006-08-26T08:01:38Z</time>
            </trkpt>
            <trkpt lon="100.419873" lat="14.040380">
                <ele>-4.188599</ele>
                <time>2006-08-26T08:01:54Z</time>
            </trkpt>
            <trkpt lon="100.419232" lat="14.040267">
                <ele>-2.746704</ele>
                <time>2006-08-26T08:02:09Z</time>
            </trkpt>
            <trkpt lon="100.418441" lat="14.040006">
                <ele>-4.188599</ele>
                <time>2006-08-26T08:02:26Z</time>
            </trkpt>
            <trkpt lon="100.417423" lat="14.039705">
                <ele>-1.785278</ele>
                <time>2006-08-26T08:02:47Z</time>
            </trkpt>
            <trkpt lon="100.416901" lat="14.039521">
                <ele>-1.785278</ele>
                <time>2006-08-26T08:02:59Z</time>
            </trkpt>
            <trkpt lon="100.416849" lat="14.039441">
                <ele>-1.785278</ele>
                <time>2006-08-26T08:03:01Z</time>
            </trkpt>
            <trkpt lon="100.416751" lat="14.039323">
                <ele>-1.785278</ele>
                <time>2006-08-26T08:03:04Z</time>
            </trkpt>
            <trkpt lon="100.416084" lat="14.038838">
                <ele>-0.824097</ele>
                <time>2006-08-26T08:03:21Z</time>
            </trkpt>
            <trkpt lon="100.415544" lat="14.038413">
                <ele>-0.824097</ele>
                <time>2006-08-26T08:03:34Z</time>
            </trkpt>
            <trkpt lon="100.414940" lat="14.037934">
                <ele>-3.227295</ele>
                <time>2006-08-26T08:03:47Z</time>
            </trkpt>
            <trkpt lon="100.414156" lat="14.037256">
                <ele>-0.824097</ele>
                <time>2006-08-26T08:04:07Z</time>
            </trkpt>
            <trkpt lon="100.413513" lat="14.036726">
                <ele>-0.343384</ele>
                <time>2006-08-26T08:04:25Z</time>
            </trkpt>
            <trkpt lon="100.413125" lat="14.036438">
                <ele>-0.343384</ele>
                <time>2006-08-26T08:04:35Z</time>
            </trkpt>
            <trkpt lon="100.412196" lat="14.036150">
                <ele>0.137451</ele>
                <time>2006-08-26T08:04:55Z</time>
            </trkpt>
            <trkpt lon="100.412080" lat="14.036014">
                <ele>-0.343384</ele>
                <time>2006-08-26T08:05:00Z</time>
            </trkpt>
            <trkpt lon="100.411957" lat="14.035082">
                <ele>-3.227295</ele>
                <time>2006-08-26T08:05:20Z</time>
            </trkpt>
            <trkpt lon="100.411791" lat="14.033981">
                <ele>-3.707886</ele>
                <time>2006-08-26T08:05:41Z</time>
            </trkpt>
            <trkpt lon="100.411598" lat="14.032706">
                <ele>-3.227295</ele>
                <time>2006-08-26T08:06:03Z</time>
            </trkpt>
            <trkpt lon="100.411452" lat="14.031805">
                <ele>-3.227295</ele>
                <time>2006-08-26T08:06:21Z</time>
            </trkpt>
            <trkpt lon="100.411327" lat="14.030900">
                <ele>-3.707886</ele>
                <time>2006-08-26T08:06:39Z</time>
            </trkpt>
            <trkpt lon="100.411149" lat="14.029659">
                <ele>-3.707886</ele>
                <time>2006-08-26T08:07:03Z</time>
            </trkpt>
            <trkpt lon="100.410964" lat="14.028387">
                <ele>-3.707886</ele>
                <time>2006-08-26T08:07:27Z</time>
            </trkpt>
            <trkpt lon="100.410790" lat="14.027153">
                <ele>-3.227295</ele>
                <time>2006-08-26T08:07:51Z</time>
            </trkpt>
            <trkpt lon="100.410695" lat="14.026391">
                <ele>-2.746704</ele>
                <time>2006-08-26T08:08:08Z</time>
            </trkpt>
            <trkpt lon="100.410662" lat="14.025990">
                <ele>-3.227295</ele>
                <time>2006-08-26T08:08:21Z</time>
            </trkpt>
            <trkpt lon="100.410542" lat="14.025170">
                <ele>-3.707886</ele>
                <time>2006-08-26T08:08:41Z</time>
            </trkpt>
            <trkpt lon="100.410408" lat="14.024771">
                <ele>-3.707886</ele>
                <time>2006-08-26T08:08:55Z</time>
            </trkpt>
            <trkpt lon="100.410284" lat="14.024515">
                <ele>-3.707886</ele>
                <time>2006-08-26T08:09:09Z</time>
            </trkpt>
            <trkpt lon="100.410145" lat="14.024331">
                <ele>-4.188599</ele>
                <time>2006-08-26T08:09:15Z</time>
            </trkpt>
            <trkpt lon="100.410073" lat="14.024175">
                <ele>-4.188599</ele>
                <time>2006-08-26T08:09:19Z</time>
            </trkpt>
            <trkpt lon="100.410215" lat="14.024054">
                <ele>-3.707886</ele>
                <time>2006-08-26T08:09:24Z</time>
            </trkpt>
            <trkpt lon="100.410815" lat="14.023794">
                <ele>-3.227295</ele>
                <time>2006-08-26T08:09:40Z</time>
            </trkpt>
            <trkpt lon="100.411363" lat="14.023604">
                <ele>-3.227295</ele>
                <time>2006-08-26T08:09:56Z</time>
            </trkpt>
            <trkpt lon="100.411964" lat="14.023380">
                <ele>-3.707886</ele>
                <time>2006-08-26T08:10:13Z</time>
            </trkpt>
            <trkpt lon="100.412436" lat="14.023220">
                <ele>-4.188599</ele>
                <time>2006-08-26T08:10:31Z</time>
            </trkpt>
            <trkpt lon="100.412775" lat="14.023085">
                <ele>-3.707886</ele>
                <time>2006-08-26T08:10:46Z</time>
            </trkpt>
            <trkpt lon="100.413107" lat="14.022957">
                <ele>-3.227295</ele>
                <time>2006-08-26T08:11:00Z</time>
            </trkpt>
            <trkpt lon="100.413648" lat="14.022750">
                <ele>-2.265991</ele>
                <time>2006-08-26T08:11:19Z</time>
            </trkpt>
            <trkpt lon="100.414068" lat="14.022594">
                <ele>-2.746704</ele>
                <time>2006-08-26T08:11:35Z</time>
            </trkpt>
            <trkpt lon="100.414417" lat="14.022473">
                <ele>-2.265991</ele>
                <time>2006-08-26T08:11:51Z</time>
            </trkpt>
            <trkpt lon="100.414506" lat="14.022424">
                <ele>-1.785278</ele>
                <time>2006-08-26T08:12:04Z</time>
            </trkpt>
            <trkpt lon="100.414333" lat="14.022452">
                <ele>-1.785278</ele>
                <time>2006-08-26T08:12:14Z</time>
            </trkpt>
            <trkpt lon="100.413990" lat="14.022581">
                <ele>-1.785278</ele>
                <time>2006-08-26T08:12:31Z</time>
            </trkpt>
            <trkpt lon="100.413648" lat="14.022706">
                <ele>-2.265991</ele>
                <time>2006-08-26T08:12:46Z</time>
            </trkpt>
            <trkpt lon="100.413198" lat="14.022872">
                <ele>-2.265991</ele>
                <time>2006-08-26T08:13:00Z</time>
            </trkpt>
            <trkpt lon="100.412353" lat="14.023179">
                <ele>-2.746704</ele>
                <time>2006-08-26T08:13:19Z</time>
            </trkpt>
            <trkpt lon="100.411390" lat="14.023583">
                <ele>-3.707886</ele>
                <time>2006-08-26T08:13:39Z</time>
            </trkpt>
            <trkpt lon="100.410176" lat="14.024029">
                <ele>-5.149902</ele>
                <time>2006-08-26T08:14:05Z</time>
            </trkpt>
            <trkpt lon="100.410099" lat="14.024095">
                <ele>-5.630493</ele>
                <time>2006-08-26T08:14:07Z</time>
            </trkpt>
            <trkpt lon="100.410145" lat="14.024405">
                <ele>-4.669312</ele>
                <time>2006-08-26T08:14:14Z</time>
            </trkpt>
            <trkpt lon="100.410269" lat="14.024545">
                <ele>-4.669312</ele>
                <time>2006-08-26T08:14:18Z</time>
            </trkpt>
            <trkpt lon="100.410367" lat="14.024669">
                <ele>-4.669312</ele>
                <time>2006-08-26T08:14:22Z</time>
            </trkpt>
            <trkpt lon="100.411115" lat="14.024352">
                <ele>-2.746704</ele>
                <time>2006-08-26T08:14:38Z</time>
            </trkpt>
            <trkpt lon="100.412087" lat="14.024092">
                <ele>-2.746704</ele>
                <time>2006-08-26T08:14:55Z</time>
            </trkpt>
            <trkpt lon="100.413272" lat="14.023779">
                <ele>-2.746704</ele>
                <time>2006-08-26T08:15:15Z</time>
            </trkpt>
            <trkpt lon="100.414548" lat="14.023466">
                <ele>-2.265991</ele>
                <time>2006-08-26T08:15:36Z</time>
            </trkpt>
            <trkpt lon="100.415779" lat="14.023145">
                <ele>-1.785278</ele>
                <time>2006-08-26T08:15:57Z</time>
            </trkpt>
            <trkpt lon="100.416956" lat="14.022836">
                <ele>-1.304688</ele>
                <time>2006-08-26T08:16:17Z</time>
            </trkpt>
            <trkpt lon="100.418189" lat="14.022525">
                <ele>-1.785278</ele>
                <time>2006-08-26T08:16:37Z</time>
            </trkpt>
            <trkpt lon="100.419392" lat="14.022271">
                <ele>-2.746704</ele>
                <time>2006-08-26T08:16:57Z</time>
            </trkpt>
            <trkpt lon="100.420677" lat="14.021934">
                <ele>-1.785278</ele>
                <time>2006-08-26T08:17:18Z</time>
            </trkpt>
            <trkpt lon="100.420929" lat="14.021878">
                <ele>-1.785278</ele>
                <time>2006-08-26T08:17:27Z</time>
            </trkpt>
            <trkpt lon="100.421347" lat="14.021746">
                <ele>-2.265991</ele>
                <time>2006-08-26T08:17:38Z</time>
            </trkpt>
            <trkpt lon="100.422683" lat="14.021389">
                <ele>-2.265991</ele>
                <time>2006-08-26T08:18:01Z</time>
            </trkpt>
            <trkpt lon="100.424123" lat="14.021036">
                <ele>-1.304688</ele>
                <time>2006-08-26T08:18:25Z</time>
            </trkpt>
            <trkpt lon="100.425669" lat="14.020653">
                <ele>-1.304688</ele>
                <time>2006-08-26T08:18:51Z</time>
            </trkpt>
            <trkpt lon="100.426674" lat="14.020409">
                <ele>-1.785278</ele>
                <time>2006-08-26T08:19:08Z</time>
            </trkpt>
            <trkpt lon="100.426864" lat="14.020374">
                <ele>-1.785278</ele>
                <time>2006-08-26T08:19:12Z</time>
            </trkpt>
            <trkpt lon="100.427580" lat="14.020180">
                <ele>-1.304688</ele>
                <time>2006-08-26T08:19:28Z</time>
            </trkpt>
            <trkpt lon="100.428627" lat="14.019895">
                <ele>-1.785278</ele>
                <time>2006-08-26T08:19:48Z</time>
            </trkpt>
            <trkpt lon="100.429641" lat="14.019650">
                <ele>-1.304688</ele>
                <time>2006-08-26T08:20:07Z</time>
            </trkpt>
            <trkpt lon="100.430465" lat="14.019437">
                <ele>-1.304688</ele>
                <time>2006-08-26T08:20:23Z</time>
            </trkpt>
            <trkpt lon="100.431535" lat="14.019175">
                <ele>-2.265991</ele>
                <time>2006-08-26T08:20:43Z</time>
            </trkpt>
            <trkpt lon="100.432344" lat="14.019002">
                <ele>-2.265991</ele>
                <time>2006-08-26T08:20:57Z</time>
            </trkpt>
            <trkpt lon="100.433458" lat="14.018715">
                <ele>-0.343384</ele>
                <time>2006-08-26T08:21:17Z</time>
            </trkpt>
            <trkpt lon="100.434516" lat="14.018452">
                <ele>-0.343384</ele>
                <time>2006-08-26T08:21:36Z</time>
            </trkpt>
            <trkpt lon="100.435761" lat="14.018146">
                <ele>-2.265991</ele>
                <time>2006-08-26T08:21:59Z</time>
            </trkpt>
            <trkpt lon="100.436897" lat="14.017847">
                <ele>-1.785278</ele>
                <time>2006-08-26T08:22:20Z</time>
            </trkpt>
            <trkpt lon="100.438071" lat="14.017571">
                <ele>-1.304688</ele>
                <time>2006-08-26T08:22:42Z</time>
            </trkpt>
            <trkpt lon="100.438177" lat="14.017525">
                <ele>-0.824097</ele>
                <time>2006-08-26T08:22:44Z</time>
            </trkpt>
            <trkpt lon="100.439004" lat="14.017329">
                <ele>-1.304688</ele>
                <time>2006-08-26T08:23:01Z</time>
            </trkpt>
            <trkpt lon="100.439836" lat="14.017148">
                <ele>-2.746704</ele>
                <time>2006-08-26T08:23:19Z</time>
            </trkpt>
            <trkpt lon="100.440400" lat="14.017011">
                <ele>-4.188599</ele>
                <time>2006-08-26T08:23:37Z</time>
            </trkpt>
            <trkpt lon="100.440633" lat="14.016938">
                <ele>-3.227295</ele>
                <time>2006-08-26T08:23:51Z</time>
            </trkpt>
            <trkpt lon="100.440724" lat="14.016889">
                <ele>-1.785278</ele>
                <time>2006-08-26T08:24:05Z</time>
            </trkpt>
            <trkpt lon="100.440895" lat="14.016847">
                <ele>-0.343384</ele>
                <time>2006-08-26T08:24:21Z</time>
            </trkpt>
            <trkpt lon="100.441109" lat="14.016798">
                <ele>1.579346</ele>
                <time>2006-08-26T08:24:40Z</time>
            </trkpt>
            <trkpt lon="100.441282" lat="14.016751">
                <ele>2.060059</ele>
                <time>2006-08-26T08:24:58Z</time>
            </trkpt>
            <trkpt lon="100.441443" lat="14.016704">
                <ele>2.540649</ele>
                <time>2006-08-26T08:25:14Z</time>
            </trkpt>
            <trkpt lon="100.441788" lat="14.016634">
                <ele>2.540649</ele>
                <time>2006-08-26T08:25:27Z</time>
            </trkpt>
            <trkpt lon="100.441972" lat="14.016590">
                <ele>1.098633</ele>
                <time>2006-08-26T08:25:40Z</time>
            </trkpt>
            <trkpt lon="100.442042" lat="14.016561">
                <ele>0.618042</ele>
                <time>2006-08-26T08:25:48Z</time>
            </trkpt>
            <trkpt lon="100.442469" lat="14.016576">
                <ele>-0.343384</ele>
                <time>2006-08-26T08:26:06Z</time>
            </trkpt>
            <trkpt lon="100.442467" lat="14.016454">
                <ele>1.098633</ele>
                <time>2006-08-26T08:26:15Z</time>
            </trkpt>
            <trkpt lon="100.442442" lat="14.016228">
                <ele>0.137451</ele>
                <time>2006-08-26T08:26:30Z</time>
            </trkpt>
            <trkpt lon="100.442425" lat="14.016110">
                <ele>1.579346</ele>
                <time>2006-08-26T08:27:02Z</time>
            </trkpt>
            <trkpt lon="100.442376" lat="14.015751">
                <ele>-0.343384</ele>
                <time>2006-08-26T08:27:14Z</time>
            </trkpt>
            <trkpt lon="100.442250" lat="14.014955">
                <ele>-0.343384</ele>
                <time>2006-08-26T08:27:33Z</time>
            </trkpt>
            <trkpt lon="100.442080" lat="14.013782">
                <ele>-1.785278</ele>
                <time>2006-08-26T08:27:57Z</time>
            </trkpt>
            <trkpt lon="100.441907" lat="14.012620">
                <ele>-3.707886</ele>
                <time>2006-08-26T08:28:19Z</time>
            </trkpt>
            <trkpt lon="100.441789" lat="14.011584">
                <ele>-4.669312</ele>
                <time>2006-08-26T08:28:39Z</time>
            </trkpt>
            <trkpt lon="100.441618" lat="14.010755">
                <ele>-3.707886</ele>
                <time>2006-08-26T08:28:57Z</time>
            </trkpt>
            <trkpt lon="100.441589" lat="14.010553">
                <ele>-3.227295</ele>
                <time>2006-08-26T08:29:02Z</time>
            </trkpt>
            <trkpt lon="100.441449" lat="14.009510">
                <ele>-1.785278</ele>
                <time>2006-08-26T08:29:25Z</time>
            </trkpt>
            <trkpt lon="100.441308" lat="14.008576">
                <ele>-2.746704</ele>
                <time>2006-08-26T08:29:48Z</time>
            </trkpt>
            <trkpt lon="100.441213" lat="14.007780">
                <ele>-3.707886</ele>
                <time>2006-08-26T08:30:07Z</time>
            </trkpt>
            <trkpt lon="100.441109" lat="14.007070">
                <ele>-4.188599</ele>
                <time>2006-08-26T08:30:26Z</time>
            </trkpt>
            <trkpt lon="100.441025" lat="14.006567">
                <ele>-3.707886</ele>
                <time>2006-08-26T08:30:37Z</time>
            </trkpt>
            <trkpt lon="100.440841" lat="14.005510">
                <ele>-4.188599</ele>
                <time>2006-08-26T08:31:00Z</time>
            </trkpt>
            <trkpt lon="100.440737" lat="14.004722">
                <ele>-4.188599</ele>
                <time>2006-08-26T08:31:17Z</time>
            </trkpt>
            <trkpt lon="100.440603" lat="14.003753">
                <ele>-4.188599</ele>
                <time>2006-08-26T08:31:37Z</time>
            </trkpt>
            <trkpt lon="100.440492" lat="14.002767">
                <ele>-4.188599</ele>
                <time>2006-08-26T08:31:57Z</time>
            </trkpt>
            <trkpt lon="100.440366" lat="14.001778">
                <ele>-3.707886</ele>
                <time>2006-08-26T08:32:18Z</time>
            </trkpt>
            <trkpt lon="100.440177" lat="14.000770">
                <ele>-4.188599</ele>
                <time>2006-08-26T08:32:39Z</time>
            </trkpt>
            <trkpt lon="100.440035" lat="13.999900">
                <ele>-4.669312</ele>
                <time>2006-08-26T08:32:57Z</time>
            </trkpt>
            <trkpt lon="100.439866" lat="13.999231">
                <ele>-4.669312</ele>
                <time>2006-08-26T08:33:12Z</time>
            </trkpt>
            <trkpt lon="100.439842" lat="13.998665">
                <ele>-4.188599</ele>
                <time>2006-08-26T08:33:25Z</time>
            </trkpt>
            <trkpt lon="100.439985" lat="13.998605">
                <ele>-4.669312</ele>
                <time>2006-08-26T08:33:29Z</time>
            </trkpt>
            <trkpt lon="100.440839" lat="13.998456">
                <ele>-7.072510</ele>
                <time>2006-08-26T08:33:48Z</time>
            </trkpt>
            <trkpt lon="100.441548" lat="13.998320">
                <ele>-6.591919</ele>
                <time>2006-08-26T08:34:05Z</time>
            </trkpt>
            <trkpt lon="100.441557" lat="13.998202">
                <ele>-6.111206</ele>
                <time>2006-08-26T08:34:09Z</time>
            </trkpt>
            <trkpt lon="100.441463" lat="13.997515">
                <ele>-3.707886</ele>
                <time>2006-08-26T08:34:24Z</time>
            </trkpt>
            <trkpt lon="100.441321" lat="13.996323">
                <ele>-3.707886</ele>
                <time>2006-08-26T08:34:47Z</time>
            </trkpt>
            <trkpt lon="100.441175" lat="13.995240">
                <ele>-3.227295</ele>
                <time>2006-08-26T08:35:09Z</time>
            </trkpt>
            <trkpt lon="100.441056" lat="13.994316">
                <ele>-1.785278</ele>
                <time>2006-08-26T08:35:27Z</time>
            </trkpt>
            <trkpt lon="100.440911" lat="13.993163">
                <ele>-1.304688</ele>
                <time>2006-08-26T08:35:48Z</time>
            </trkpt>
            <trkpt lon="100.440697" lat="13.991976">
                <ele>-0.824097</ele>
                <time>2006-08-26T08:36:11Z</time>
            </trkpt>
            <trkpt lon="100.440474" lat="13.990963">
                <ele>0.137451</ele>
                <time>2006-08-26T08:36:31Z</time>
            </trkpt>
            <trkpt lon="100.440246" lat="13.989942">
                <ele>0.618042</ele>
                <time>2006-08-26T08:36:51Z</time>
            </trkpt>
            <trkpt lon="100.440018" lat="13.988965">
                <ele>1.098633</ele>
                <time>2006-08-26T08:37:12Z</time>
            </trkpt>
            <trkpt lon="100.439793" lat="13.987997">
                <ele>2.060059</ele>
                <time>2006-08-26T08:37:33Z</time>
            </trkpt>
            <trkpt lon="100.439615" lat="13.987221">
                <ele>2.060059</ele>
                <time>2006-08-26T08:37:50Z</time>
            </trkpt>
            <trkpt lon="100.439404" lat="13.986281">
                <ele>2.060059</ele>
                <time>2006-08-26T08:38:09Z</time>
            </trkpt>
            <trkpt lon="100.439313" lat="13.985938">
                <ele>2.540649</ele>
                <time>2006-08-26T08:38:16Z</time>
            </trkpt>
            <trkpt lon="100.439287" lat="13.985788">
                <ele>2.540649</ele>
                <time>2006-08-26T08:38:19Z</time>
            </trkpt>
            <trkpt lon="100.439038" lat="13.984735">
                <ele>3.982666</ele>
                <time>2006-08-26T08:38:41Z</time>
            </trkpt>
            <trkpt lon="100.438823" lat="13.983698">
                <ele>5.424561</ele>
                <time>2006-08-26T08:39:03Z</time>
            </trkpt>
            <trkpt lon="100.438743" lat="13.982762">
                <ele>2.060059</ele>
                <time>2006-08-26T08:39:23Z</time>
            </trkpt>
            <trkpt lon="100.438757" lat="13.981817">
                <ele>-0.343384</ele>
                <time>2006-08-26T08:39:44Z</time>
            </trkpt>
            <trkpt lon="100.438749" lat="13.981565">
                <ele>-0.343384</ele>
                <time>2006-08-26T08:39:51Z</time>
            </trkpt>
            <trkpt lon="100.438578" lat="13.981529">
                <ele>0.137451</ele>
                <time>2006-08-26T08:39:56Z</time>
            </trkpt>
            <trkpt lon="100.437622" lat="13.981728">
                <ele>3.501953</ele>
                <time>2006-08-26T08:40:17Z</time>
            </trkpt>
            <trkpt lon="100.437325" lat="13.981777">
                <ele>3.982666</ele>
                <time>2006-08-26T08:40:28Z</time>
            </trkpt>
            <trkpt lon="100.437302" lat="13.981570">
                <ele>3.501953</ele>
                <time>2006-08-26T08:40:40Z</time>
            </trkpt>
            <trkpt lon="100.437262" lat="13.981153">
                <ele>3.982666</ele>
                <time>2006-08-26T08:40:56Z</time>
            </trkpt>
            <trkpt lon="100.437277" lat="13.980576">
                <ele>3.021240</ele>
                <time>2006-08-26T08:41:12Z</time>
            </trkpt>
            <trkpt lon="100.437445" lat="13.980032">
                <ele>0.137451</ele>
                <time>2006-08-26T08:41:28Z</time>
            </trkpt>
            <trkpt lon="100.437859" lat="13.979233">
                <ele>-0.343384</ele>
                <time>2006-08-26T08:41:50Z</time>
            </trkpt>
            <trkpt lon="100.439064" lat="13.978368">
                <ele>-2.265991</ele>
                <time>2006-08-26T08:42:27Z</time>
            </trkpt>
            <trkpt lon="100.439616" lat="13.977948">
                <ele>-1.785278</ele>
                <time>2006-08-26T08:42:46Z</time>
            </trkpt>
            <trkpt lon="100.440122" lat="13.977610">
                <ele>-1.304688</ele>
                <time>2006-08-26T08:43:05Z</time>
            </trkpt>
            <trkpt lon="100.440100" lat="13.977608">
                <ele>-0.824097</ele>
                <time>2006-08-26T08:43:17Z</time>
            </trkpt>
            <trkpt lon="100.439801" lat="13.977804">
                <ele>-0.824097</ele>
                <time>2006-08-26T08:43:30Z</time>
            </trkpt>
            <trkpt lon="100.439712" lat="13.977870">
                <ele>-0.824097</ele>
                <time>2006-08-26T08:43:40Z</time>
            </trkpt>
            <trkpt lon="100.439527" lat="13.977995">
                <ele>-0.343384</ele>
                <time>2006-08-26T08:43:50Z</time>
            </trkpt>
            <trkpt lon="100.438980" lat="13.978437">
                <ele>-0.824097</ele>
                <time>2006-08-26T08:44:10Z</time>
            </trkpt>
            <trkpt lon="100.438782" lat="13.978589">
                <ele>0.618042</ele>
                <time>2006-08-26T08:44:21Z</time>
            </trkpt>
            <trkpt lon="100.438797" lat="13.978589">
                <ele>0.618042</ele>
                <time>2006-08-26T08:44:26Z</time>
            </trkpt>
            <trkpt lon="100.438891" lat="13.978512">
                <ele>-0.343384</ele>
                <time>2006-08-26T08:44:33Z</time>
            </trkpt>
            <trkpt lon="100.439316" lat="13.978178">
                <ele>1.098633</ele>
                <time>2006-08-26T08:44:48Z</time>
            </trkpt>
            <trkpt lon="100.440047" lat="13.977648">
                <ele>-0.824097</ele>
                <time>2006-08-26T08:45:08Z</time>
            </trkpt>
            <trkpt lon="100.440086" lat="13.977634">
                <ele>-0.824097</ele>
                <time>2006-08-26T08:45:09Z</time>
            </trkpt>
            <trkpt lon="100.440226" lat="13.977686">
                <ele>-1.304688</ele>
                <time>2006-08-26T08:45:13Z</time>
            </trkpt>
            <trkpt lon="100.440502" lat="13.978022">
                <ele>-2.265991</ele>
                <time>2006-08-26T08:45:27Z</time>
            </trkpt>
            <trkpt lon="100.440766" lat="13.978315">
                <ele>-3.227295</ele>
                <time>2006-08-26T08:45:39Z</time>
            </trkpt>
            <trkpt lon="100.441159" lat="13.978872">
                <ele>-3.707886</ele>
                <time>2006-08-26T08:45:57Z</time>
            </trkpt>
            <trkpt lon="100.441157" lat="13.978936">
                <ele>-2.746704</ele>
                <time>2006-08-26T08:46:00Z</time>
            </trkpt>
            <trkpt lon="100.441223" lat="13.978933">
                <ele>-2.265991</ele>
                <time>2006-08-26T08:46:04Z</time>
            </trkpt>
            <trkpt lon="100.441567" lat="13.978656">
                <ele>-3.227295</ele>
                <time>2006-08-26T08:46:20Z</time>
            </trkpt>
            <trkpt lon="100.442305" lat="13.978057">
                <ele>-2.746704</ele>
                <time>2006-08-26T08:46:41Z</time>
            </trkpt>
            <trkpt lon="100.443494" lat="13.977139">
                <ele>-2.746704</ele>
                <time>2006-08-26T08:47:10Z</time>
            </trkpt>
            <trkpt lon="100.444433" lat="13.976391">
                <ele>-3.707886</ele>
                <time>2006-08-26T08:47:33Z</time>
            </trkpt>
            <trkpt lon="100.444626" lat="13.976224">
                <ele>-3.707886</ele>
                <time>2006-08-26T08:47:38Z</time>
            </trkpt>
            <trkpt lon="100.445500" lat="13.975522">
                <ele>-2.265991</ele>
                <time>2006-08-26T08:48:01Z</time>
            </trkpt>
            <trkpt lon="100.446208" lat="13.974960">
                <ele>-3.227295</ele>
                <time>2006-08-26T08:48:18Z</time>
            </trkpt>
            <trkpt lon="100.447142" lat="13.974131">
                <ele>-3.707886</ele>
                <time>2006-08-26T08:48:42Z</time>
            </trkpt>
            <trkpt lon="100.447211" lat="13.974059">
                <ele>-4.188599</ele>
                <time>2006-08-26T08:48:44Z</time>
            </trkpt>
            <trkpt lon="100.448090" lat="13.973347">
                <ele>-3.707886</ele>
                <time>2006-08-26T08:49:06Z</time>
            </trkpt>
            <trkpt lon="100.449115" lat="13.972633">
                <ele>-3.227295</ele>
                <time>2006-08-26T08:49:29Z</time>
            </trkpt>
            <trkpt lon="100.449199" lat="13.972568">
                <ele>-3.707886</ele>
                <time>2006-08-26T08:49:31Z</time>
            </trkpt>
            <trkpt lon="100.449323" lat="13.972481">
                <ele>-2.265991</ele>
                <time>2006-08-26T08:49:34Z</time>
            </trkpt>
            <trkpt lon="100.449317" lat="13.972268">
                <ele>-2.746704</ele>
                <time>2006-08-26T08:49:40Z</time>
            </trkpt>
            <trkpt lon="100.449003" lat="13.971525">
                <ele>-1.785278</ele>
                <time>2006-08-26T08:49:59Z</time>
            </trkpt>
            <trkpt lon="100.448745" lat="13.971010">
                <ele>1.098633</ele>
                <time>2006-08-26T08:50:16Z</time>
            </trkpt>
            <trkpt lon="100.448693" lat="13.970938">
                <ele>2.540649</ele>
                <time>2006-08-26T08:50:28Z</time>
            </trkpt>
            <trkpt lon="100.448560" lat="13.970807">
                <ele>4.463257</ele>
                <time>2006-08-26T08:50:40Z</time>
            </trkpt>
            <trkpt lon="100.448510" lat="13.970730">
                <ele>3.982666</ele>
                <time>2006-08-26T08:50:45Z</time>
            </trkpt>
            <trkpt lon="100.448462" lat="13.970682">
                <ele>3.021240</ele>
                <time>2006-08-26T08:50:47Z</time>
            </trkpt>
            <trkpt lon="100.448361" lat="13.970599">
                <ele>1.579346</ele>
                <time>2006-08-26T08:50:50Z</time>
            </trkpt>
            <trkpt lon="100.447790" lat="13.969946">
                <ele>-0.343384</ele>
                <time>2006-08-26T08:51:07Z</time>
            </trkpt>
            <trkpt lon="100.447629" lat="13.969756">
                <ele>-0.343384</ele>
                <time>2006-08-26T08:51:13Z</time>
            </trkpt>
            <trkpt lon="100.447621" lat="13.969663">
                <ele>-4.669312</ele>
                <time>2006-08-26T08:58:17Z</time>
            </trkpt>
            <trkpt lon="100.447574" lat="13.969683">
                <ele>-3.707886</ele>
                <time>2006-08-26T08:58:23Z</time>
            </trkpt>
            <trkpt lon="100.447286" lat="13.969927">
                <ele>-3.707886</ele>
                <time>2006-08-26T08:58:35Z</time>
            </trkpt>
            <trkpt lon="100.446594" lat="13.970473">
                <ele>-2.746704</ele>
                <time>2006-08-26T08:58:54Z</time>
            </trkpt>
            <trkpt lon="100.445665" lat="13.971258">
                <ele>-3.227295</ele>
                <time>2006-08-26T08:59:18Z</time>
            </trkpt>
            <trkpt lon="100.445005" lat="13.971792">
                <ele>-3.227295</ele>
                <time>2006-08-26T08:59:34Z</time>
            </trkpt>
            <trkpt lon="100.444632" lat="13.972081">
                <ele>-2.746704</ele>
                <time>2006-08-26T08:59:44Z</time>
            </trkpt>
            <trkpt lon="100.444481" lat="13.971979">
                <ele>-2.265991</ele>
                <time>2006-08-26T08:59:50Z</time>
            </trkpt>
            <trkpt lon="100.443891" lat="13.971365">
                <ele>-0.824097</ele>
                <time>2006-08-26T09:00:09Z</time>
            </trkpt>
            <trkpt lon="100.443262" lat="13.970708">
                <ele>-0.343384</ele>
                <time>2006-08-26T09:00:27Z</time>
            </trkpt>
            <trkpt lon="100.443061" lat="13.970524">
                <ele>0.618042</ele>
                <time>2006-08-26T09:00:33Z</time>
            </trkpt>
            <trkpt lon="100.442779" lat="13.970468">
                <ele>0.137451</ele>
                <time>2006-08-26T09:00:40Z</time>
            </trkpt>
            <trkpt lon="100.442688" lat="13.970500">
                <ele>0.137451</ele>
                <time>2006-08-26T09:00:42Z</time>
            </trkpt>
            <trkpt lon="100.442425" lat="13.970423">
                <ele>0.137451</ele>
                <time>2006-08-26T09:00:48Z</time>
            </trkpt>
            <trkpt lon="100.441661" lat="13.969870">
                <ele>0.137451</ele>
                <time>2006-08-26T09:01:08Z</time>
            </trkpt>
            <trkpt lon="100.441581" lat="13.969817">
                <ele>0.618042</ele>
                <time>2006-08-26T09:01:10Z</time>
            </trkpt>
            <trkpt lon="100.440716" lat="13.969196">
                <ele>0.137451</ele>
                <time>2006-08-26T09:01:32Z</time>
            </trkpt>
            <trkpt lon="100.440490" lat="13.969023">
                <ele>-0.343384</ele>
                <time>2006-08-26T09:01:38Z</time>
            </trkpt>
            <trkpt lon="100.439976" lat="13.968602">
                <ele>0.137451</ele>
                <time>2006-08-26T09:01:53Z</time>
            </trkpt>
            <trkpt lon="100.439228" lat="13.967947">
                <ele>0.137451</ele>
                <time>2006-08-26T09:02:14Z</time>
            </trkpt>
            <trkpt lon="100.438484" lat="13.967160">
                <ele>0.618042</ele>
                <time>2006-08-26T09:02:38Z</time>
            </trkpt>
            <trkpt lon="100.437892" lat="13.966496">
                <ele>0.618042</ele>
                <time>2006-08-26T09:02:57Z</time>
            </trkpt>
            <trkpt lon="100.437634" lat="13.966222">
                <ele>1.098633</ele>
                <time>2006-08-26T09:03:05Z</time>
            </trkpt>
            <trkpt lon="100.436980" lat="13.965505">
                <ele>1.098633</ele>
                <time>2006-08-26T09:03:26Z</time>
            </trkpt>
            <trkpt lon="100.436496" lat="13.964915">
                <ele>0.618042</ele>
                <time>2006-08-26T09:03:44Z</time>
            </trkpt>
            <trkpt lon="100.436539" lat="13.964668">
                <ele>0.137451</ele>
                <time>2006-08-26T09:03:50Z</time>
            </trkpt>
            <trkpt lon="100.436587" lat="13.964594">
                <ele>-0.343384</ele>
                <time>2006-08-26T09:03:52Z</time>
            </trkpt>
            <trkpt lon="100.436674" lat="13.964392">
                <ele>-1.785278</ele>
                <time>2006-08-26T09:03:57Z</time>
            </trkpt>
            <trkpt lon="100.437096" lat="13.963734">
                <ele>-4.669312</ele>
                <time>2006-08-26T09:04:14Z</time>
            </trkpt>
            <trkpt lon="100.437560" lat="13.963083">
                <ele>-5.149902</ele>
                <time>2006-08-26T09:04:30Z</time>
            </trkpt>
            <trkpt lon="100.437857" lat="13.962674">
                <ele>-5.630493</ele>
                <time>2006-08-26T09:04:40Z</time>
            </trkpt>
            <trkpt lon="100.438352" lat="13.962075">
                <ele>-7.072510</ele>
                <time>2006-08-26T09:04:55Z</time>
            </trkpt>
            <trkpt lon="100.439069" lat="13.961167">
                <ele>-6.591919</ele>
                <time>2006-08-26T09:05:18Z</time>
            </trkpt>
            <trkpt lon="100.439652" lat="13.960403">
                <ele>-6.111206</ele>
                <time>2006-08-26T09:05:41Z</time>
            </trkpt>
            <trkpt lon="100.439776" lat="13.960247">
                <ele>-7.553101</ele>
                <time>2006-08-26T09:05:50Z</time>
            </trkpt>
            <trkpt lon="100.439798" lat="13.960204">
                <ele>-4.188599</ele>
                <time>2006-08-26T09:06:06Z</time>
            </trkpt>
            <trkpt lon="100.439847" lat="13.960078">
                <ele>-3.227295</ele>
                <time>2006-08-26T09:06:21Z</time>
            </trkpt>
            <trkpt lon="100.439898" lat="13.960013">
                <ele>-2.746704</ele>
                <time>2006-08-26T09:06:35Z</time>
            </trkpt>
            <trkpt lon="100.439896" lat="13.960122">
                <ele>-1.304688</ele>
                <time>2006-08-26T09:19:34Z</time>
            </trkpt>
            <trkpt lon="100.440121" lat="13.959841">
                <ele>-3.227295</ele>
                <time>2006-08-26T09:19:46Z</time>
            </trkpt>
            <trkpt lon="100.440723" lat="13.959038">
                <ele>-3.227295</ele>
                <time>2006-08-26T09:20:07Z</time>
            </trkpt>
            <trkpt lon="100.441630" lat="13.957936">
                <ele>-5.149902</ele>
                <time>2006-08-26T09:20:34Z</time>
            </trkpt>
            <trkpt lon="100.442365" lat="13.957260">
                <ele>-1.304688</ele>
                <time>2006-08-26T09:20:52Z</time>
            </trkpt>
            <trkpt lon="100.442861" lat="13.956782">
                <ele>-1.304688</ele>
                <time>2006-08-26T09:21:04Z</time>
            </trkpt>
            <trkpt lon="100.443068" lat="13.956125">
                <ele>-2.265991</ele>
                <time>2006-08-26T09:21:16Z</time>
            </trkpt>
            <trkpt lon="100.443047" lat="13.955787">
                <ele>-1.304688</ele>
                <time>2006-08-26T09:21:22Z</time>
            </trkpt>
            <trkpt lon="100.442966" lat="13.955516">
                <ele>-0.824097</ele>
                <time>2006-08-26T09:21:27Z</time>
            </trkpt>
            <trkpt lon="100.443067" lat="13.955279">
                <ele>-1.785278</ele>
                <time>2006-08-26T09:21:32Z</time>
            </trkpt>
            <trkpt lon="100.443590" lat="13.954864">
                <ele>-1.785278</ele>
                <time>2006-08-26T09:21:44Z</time>
            </trkpt>
            <trkpt lon="100.444296" lat="13.954013">
                <ele>-8.033936</ele>
                <time>2006-08-26T09:22:04Z</time>
            </trkpt>
            <trkpt lon="100.445091" lat="13.953234">
                <ele>-3.707886</ele>
                <time>2006-08-26T09:22:24Z</time>
            </trkpt>
            <trkpt lon="100.446051" lat="13.952558">
                <ele>-1.304688</ele>
                <time>2006-08-26T09:22:45Z</time>
            </trkpt>
            <trkpt lon="100.446894" lat="13.952185">
                <ele>-0.343384</ele>
                <time>2006-08-26T09:23:02Z</time>
            </trkpt>
            <trkpt lon="100.447408" lat="13.951778">
                <ele>0.618042</ele>
                <time>2006-08-26T09:23:14Z</time>
            </trkpt>
            <trkpt lon="100.447468" lat="13.951404">
                <ele>1.098633</ele>
                <time>2006-08-26T09:23:22Z</time>
            </trkpt>
            <trkpt lon="100.446832" lat="13.950378">
                <ele>2.540649</ele>
                <time>2006-08-26T09:23:43Z</time>
            </trkpt>
            <trkpt lon="100.446301" lat="13.949754">
                <ele>4.463257</ele>
                <time>2006-08-26T09:23:58Z</time>
            </trkpt>
            <trkpt lon="100.446281" lat="13.949515">
                <ele>3.982666</ele>
                <time>2006-08-26T09:24:03Z</time>
            </trkpt>
            <trkpt lon="100.446890" lat="13.949077">
                <ele>2.060059</ele>
                <time>2006-08-26T09:24:18Z</time>
            </trkpt>
            <trkpt lon="100.446906" lat="13.948986">
                <ele>1.579346</ele>
                <time>2006-08-26T09:24:22Z</time>
            </trkpt>
            <trkpt lon="100.446890" lat="13.948899">
                <ele>3.021240</ele>
                <time>2006-08-26T09:24:27Z</time>
            </trkpt>
            <trkpt lon="100.446794" lat="13.948871">
                <ele>2.540649</ele>
                <time>2006-08-26T09:24:33Z</time>
            </trkpt>
            <trkpt lon="100.446651" lat="13.948828">
                <ele>2.060059</ele>
                <time>2006-08-26T09:24:37Z</time>
            </trkpt>
            <trkpt lon="100.445736" lat="13.948671">
                <ele>3.501953</ele>
                <time>2006-08-26T09:24:56Z</time>
            </trkpt>
            <trkpt lon="100.445316" lat="13.948574">
                <ele>4.943848</ele>
                <time>2006-08-26T09:25:05Z</time>
            </trkpt>
            <trkpt lon="100.445009" lat="13.948002">
                <ele>6.385864</ele>
                <time>2006-08-26T09:25:18Z</time>
            </trkpt>
            <trkpt lon="100.444739" lat="13.946992">
                <ele>5.424561</ele>
                <time>2006-08-26T09:25:37Z</time>
            </trkpt>
            <trkpt lon="100.444428" lat="13.946310">
                <ele>4.463257</ele>
                <time>2006-08-26T09:25:50Z</time>
            </trkpt>
            <trkpt lon="100.443574" lat="13.945445">
                <ele>3.982666</ele>
                <time>2006-08-26T09:26:10Z</time>
            </trkpt>
            <trkpt lon="100.442690" lat="13.944856">
                <ele>3.982666</ele>
                <time>2006-08-26T09:26:29Z</time>
            </trkpt>
            <trkpt lon="100.442381" lat="13.944634">
                <ele>3.982666</ele>
                <time>2006-08-26T09:26:36Z</time>
            </trkpt>
            <trkpt lon="100.441936" lat="13.943925">
                <ele>3.501953</ele>
                <time>2006-08-26T09:26:50Z</time>
            </trkpt>
            <trkpt lon="100.441321" lat="13.942920">
                <ele>3.982666</ele>
                <time>2006-08-26T09:27:11Z</time>
            </trkpt>
            <trkpt lon="100.440471" lat="13.941906">
                <ele>4.463257</ele>
                <time>2006-08-26T09:27:36Z</time>
            </trkpt>
            <trkpt lon="100.439748" lat="13.941104">
                <ele>4.463257</ele>
                <time>2006-08-26T09:27:57Z</time>
            </trkpt>
            <trkpt lon="100.439169" lat="13.940057">
                <ele>5.424561</ele>
                <time>2006-08-26T09:28:19Z</time>
            </trkpt>
            <trkpt lon="100.438502" lat="13.939020">
                <ele>6.385864</ele>
                <time>2006-08-26T09:28:41Z</time>
            </trkpt>
            <trkpt lon="100.437798" lat="13.938142">
                <ele>7.347168</ele>
                <time>2006-08-26T09:29:03Z</time>
            </trkpt>
            <trkpt lon="100.437183" lat="13.937339">
                <ele>6.866455</ele>
                <time>2006-08-26T09:29:23Z</time>
            </trkpt>
            <trkpt lon="100.436680" lat="13.936251">
                <ele>5.424561</ele>
                <time>2006-08-26T09:29:45Z</time>
            </trkpt>
            <trkpt lon="100.436391" lat="13.935524">
                <ele>4.943848</ele>
                <time>2006-08-26T09:30:01Z</time>
            </trkpt>
            <trkpt lon="100.436272" lat="13.935197">
                <ele>4.463257</ele>
                <time>2006-08-26T09:30:08Z</time>
            </trkpt>
            <trkpt lon="100.436379" lat="13.935053">
                <ele>3.982666</ele>
                <time>2006-08-26T09:30:13Z</time>
            </trkpt>
            <trkpt lon="100.437497" lat="13.934599">
                <ele>5.424561</ele>
                <time>2006-08-26T09:30:36Z</time>
            </trkpt>
            <trkpt lon="100.438532" lat="13.934156">
                <ele>5.424561</ele>
                <time>2006-08-26T09:30:56Z</time>
            </trkpt>
            <trkpt lon="100.439737" lat="13.933488">
                <ele>5.424561</ele>
                <time>2006-08-26T09:31:19Z</time>
            </trkpt>
            <trkpt lon="100.439991" lat="13.933541">
                <ele>5.424561</ele>
                <time>2006-08-26T09:31:24Z</time>
            </trkpt>
            <trkpt lon="100.440252" lat="13.933803">
                <ele>5.905273</ele>
                <time>2006-08-26T09:31:30Z</time>
            </trkpt>
            <trkpt lon="100.440814" lat="13.933781">
                <ele>5.905273</ele>
                <time>2006-08-26T09:31:40Z</time>
            </trkpt>
            <trkpt lon="100.441858" lat="13.933545">
                <ele>5.905273</ele>
                <time>2006-08-26T09:31:59Z</time>
            </trkpt>
            <trkpt lon="100.442676" lat="13.933369">
                <ele>7.347168</ele>
                <time>2006-08-26T09:32:16Z</time>
            </trkpt>
            <trkpt lon="100.442796" lat="13.933342">
                <ele>6.385864</ele>
                <time>2006-08-26T09:32:21Z</time>
            </trkpt>
            <trkpt lon="100.442881" lat="13.933474">
                <ele>5.905273</ele>
                <time>2006-08-26T09:32:26Z</time>
            </trkpt>
            <trkpt lon="100.443052" lat="13.933756">
                <ele>5.905273</ele>
                <time>2006-08-26T09:32:34Z</time>
            </trkpt>
            <trkpt lon="100.443272" lat="13.933742">
                <ele>5.905273</ele>
                <time>2006-08-26T09:32:40Z</time>
            </trkpt>
            <trkpt lon="100.443625" lat="13.933510">
                <ele>5.905273</ele>
                <time>2006-08-26T09:32:48Z</time>
            </trkpt>
            <trkpt lon="100.444832" lat="13.932983">
                <ele>5.424561</ele>
                <time>2006-08-26T09:33:11Z</time>
            </trkpt>
            <trkpt lon="100.446347" lat="13.932421">
                <ele>3.982666</ele>
                <time>2006-08-26T09:33:37Z</time>
            </trkpt>
            <trkpt lon="100.447898" lat="13.931997">
                <ele>4.943848</ele>
                <time>2006-08-26T09:34:04Z</time>
            </trkpt>
            <trkpt lon="100.448604" lat="13.931718">
                <ele>6.385864</ele>
                <time>2006-08-26T09:34:18Z</time>
            </trkpt>
            <trkpt lon="100.448918" lat="13.931706">
                <ele>5.905273</ele>
                <time>2006-08-26T09:34:25Z</time>
            </trkpt>
            <trkpt lon="100.449965" lat="13.931285">
                <ele>5.905273</ele>
                <time>2006-08-26T09:34:44Z</time>
            </trkpt>
            <trkpt lon="100.451114" lat="13.930831">
                <ele>4.463257</ele>
                <time>2006-08-26T09:35:05Z</time>
            </trkpt>
            <trkpt lon="100.452245" lat="13.930333">
                <ele>5.424561</ele>
                <time>2006-08-26T09:35:27Z</time>
            </trkpt>
            <trkpt lon="100.453073" lat="13.930013">
                <ele>6.385864</ele>
                <time>2006-08-26T09:35:45Z</time>
            </trkpt>
            <trkpt lon="100.453344" lat="13.930090">
                <ele>5.424561</ele>
                <time>2006-08-26T09:35:54Z</time>
            </trkpt>
            <trkpt lon="100.453561" lat="13.930355">
                <ele>4.463257</ele>
                <time>2006-08-26T09:36:01Z</time>
            </trkpt>
            <trkpt lon="100.453662" lat="13.930494">
                <ele>4.463257</ele>
                <time>2006-08-26T09:36:05Z</time>
            </trkpt>
            <trkpt lon="100.453806" lat="13.930515">
                <ele>4.463257</ele>
                <time>2006-08-26T09:36:15Z</time>
            </trkpt>
            <trkpt lon="100.453895" lat="13.930499">
                <ele>5.424561</ele>
                <time>2006-08-26T09:36:21Z</time>
            </trkpt>
            <trkpt lon="100.454070" lat="13.930476">
                <ele>5.905273</ele>
                <time>2006-08-26T09:36:35Z</time>
            </trkpt>
            <trkpt lon="100.454155" lat="13.930541">
                <ele>5.905273</ele>
                <time>2006-08-26T09:36:48Z</time>
            </trkpt>
            <trkpt lon="100.454189" lat="13.930598">
                <ele>5.424561</ele>
                <time>2006-08-26T09:36:52Z</time>
            </trkpt>
            <trkpt lon="100.454289" lat="13.930963">
                <ele>5.424561</ele>
                <time>2006-08-26T09:37:09Z</time>
            </trkpt>
            <trkpt lon="100.454326" lat="13.931117">
                <ele>4.463257</ele>
                <time>2006-08-26T09:37:23Z</time>
            </trkpt>
            <trkpt lon="100.454313" lat="13.931100">
                <ele>4.943848</ele>
                <time>2006-08-26T09:38:00Z</time>
            </trkpt>
            <trkpt lon="100.454214" lat="13.930793">
                <ele>4.943848</ele>
                <time>2006-08-26T09:38:09Z</time>
            </trkpt>
            <trkpt lon="100.454195" lat="13.930702">
                <ele>4.943848</ele>
                <time>2006-08-26T09:38:11Z</time>
            </trkpt>
            <trkpt lon="100.454188" lat="13.930613">
                <ele>4.943848</ele>
                <time>2006-08-26T09:38:13Z</time>
            </trkpt>
            <trkpt lon="100.454151" lat="13.930479">
                <ele>4.943848</ele>
                <time>2006-08-26T09:38:16Z</time>
            </trkpt>
            <trkpt lon="100.453994" lat="13.929613">
                <ele>5.424561</ele>
                <time>2006-08-26T09:38:34Z</time>
            </trkpt>
            <trkpt lon="100.453960" lat="13.928687">
                <ele>5.424561</ele>
                <time>2006-08-26T09:38:52Z</time>
            </trkpt>
            <trkpt lon="100.454320" lat="13.928112">
                <ele>4.463257</ele>
                <time>2006-08-26T09:39:07Z</time>
            </trkpt>
            <trkpt lon="100.454801" lat="13.927842">
                <ele>5.905273</ele>
                <time>2006-08-26T09:39:23Z</time>
            </trkpt>
            <trkpt lon="100.455380" lat="13.927703">
                <ele>6.866455</ele>
                <time>2006-08-26T09:39:41Z</time>
            </trkpt>
            <trkpt lon="100.456028" lat="13.927576">
                <ele>4.943848</ele>
                <time>2006-08-26T09:40:00Z</time>
            </trkpt>
            <trkpt lon="100.456518" lat="13.927379">
                <ele>4.943848</ele>
                <time>2006-08-26T09:40:15Z</time>
            </trkpt>
            <trkpt lon="100.456624" lat="13.927319">
                <ele>5.905273</ele>
                <time>2006-08-26T09:40:20Z</time>
            </trkpt>
            <trkpt lon="100.456882" lat="13.927343">
                <ele>4.463257</ele>
                <time>2006-08-26T09:40:32Z</time>
            </trkpt>
            <trkpt lon="100.457177" lat="13.927285">
                <ele>5.424561</ele>
                <time>2006-08-26T09:40:44Z</time>
            </trkpt>
            <trkpt lon="100.457710" lat="13.927165">
                <ele>5.905273</ele>
                <time>2006-08-26T09:41:03Z</time>
            </trkpt>
            <trkpt lon="100.458293" lat="13.927047">
                <ele>4.463257</ele>
                <time>2006-08-26T09:41:20Z</time>
            </trkpt>
            <trkpt lon="100.458668" lat="13.926963">
                <ele>5.424561</ele>
                <time>2006-08-26T09:41:29Z</time>
            </trkpt>
            <trkpt lon="100.458971" lat="13.926908">
                <ele>5.905273</ele>
                <time>2006-08-26T09:41:41Z</time>
            </trkpt>
            <trkpt lon="100.458982" lat="13.926896">
                <ele>6.866455</ele>
                <time>2006-08-26T09:42:38Z</time>
            </trkpt>
            <trkpt lon="100.459356" lat="13.926790">
                <ele>7.827881</ele>
                <time>2006-08-26T09:42:50Z</time>
            </trkpt>
            <trkpt lon="100.460391" lat="13.926556">
                <ele>12.153809</ele>
                <time>2006-08-26T09:43:11Z</time>
            </trkpt>
            <trkpt lon="100.461437" lat="13.926336">
                <ele>11.192505</ele>
                <time>2006-08-26T09:43:32Z</time>
            </trkpt>
            <trkpt lon="100.462070" lat="13.926197">
                <ele>9.750610</ele>
                <time>2006-08-26T09:43:49Z</time>
            </trkpt>
            <trkpt lon="100.462618" lat="13.926092">
                <ele>8.789185</ele>
                <time>2006-08-26T09:44:04Z</time>
            </trkpt>
            <trkpt lon="100.463696" lat="13.925862">
                <ele>10.711792</ele>
                <time>2006-08-26T09:44:27Z</time>
            </trkpt>
            <trkpt lon="100.465042" lat="13.925581">
                <ele>11.673218</ele>
                <time>2006-08-26T09:44:51Z</time>
            </trkpt>
            <trkpt lon="100.466607" lat="13.925271">
                <ele>11.673218</ele>
                <time>2006-08-26T09:45:18Z</time>
            </trkpt>
            <trkpt lon="100.467964" lat="13.924990">
                <ele>12.153809</ele>
                <time>2006-08-26T09:45:42Z</time>
            </trkpt>
            <trkpt lon="100.469285" lat="13.924708">
                <ele>12.153809</ele>
                <time>2006-08-26T09:46:06Z</time>
            </trkpt>
            <trkpt lon="100.469689" lat="13.924637">
                <ele>11.673218</ele>
                <time>2006-08-26T09:46:14Z</time>
            </trkpt>
            <trkpt lon="100.469861" lat="13.924670">
                <ele>11.192505</ele>
                <time>2006-08-26T09:46:18Z</time>
            </trkpt>
            <trkpt lon="100.470205" lat="13.924823">
                <ele>10.711792</ele>
                <time>2006-08-26T09:46:26Z</time>
            </trkpt>
            <trkpt lon="100.470800" lat="13.925482">
                <ele>10.711792</ele>
                <time>2006-08-26T09:46:41Z</time>
            </trkpt>
            <trkpt lon="100.471579" lat="13.926438">
                <ele>7.347168</ele>
                <time>2006-08-26T09:47:02Z</time>
            </trkpt>
            <trkpt lon="100.472157" lat="13.926993">
                <ele>6.866455</ele>
                <time>2006-08-26T09:47:16Z</time>
            </trkpt>
            <trkpt lon="100.472627" lat="13.926899">
                <ele>6.385864</ele>
                <time>2006-08-26T09:47:26Z</time>
            </trkpt>
            <trkpt lon="100.472764" lat="13.926726">
                <ele>6.385864</ele>
                <time>2006-08-26T09:47:30Z</time>
            </trkpt>
            <trkpt lon="100.472985" lat="13.926557">
                <ele>7.347168</ele>
                <time>2006-08-26T09:47:35Z</time>
            </trkpt>
            <trkpt lon="100.473424" lat="13.926624">
                <ele>7.347168</ele>
                <time>2006-08-26T09:47:43Z</time>
            </trkpt>
            <trkpt lon="100.474473" lat="13.927334">
                <ele>5.905273</ele>
                <time>2006-08-26T09:48:04Z</time>
            </trkpt>
            <trkpt lon="100.475134" lat="13.927770">
                <ele>6.385864</ele>
                <time>2006-08-26T09:48:17Z</time>
            </trkpt>
            <trkpt lon="100.475325" lat="13.927826">
                <ele>6.866455</ele>
                <time>2006-08-26T09:48:21Z</time>
            </trkpt>
            <trkpt lon="100.475618" lat="13.927718">
                <ele>8.308594</ele>
                <time>2006-08-26T09:48:27Z</time>
            </trkpt>
            <trkpt lon="100.476756" lat="13.926794">
                <ele>9.269897</ele>
                <time>2006-08-26T09:48:51Z</time>
            </trkpt>
            <trkpt lon="100.477026" lat="13.926794">
                <ele>9.750610</ele>
                <time>2006-08-26T09:48:56Z</time>
            </trkpt>
            <trkpt lon="100.477752" lat="13.927347">
                <ele>10.711792</ele>
                <time>2006-08-26T09:49:12Z</time>
            </trkpt>
            <trkpt lon="100.478303" lat="13.927681">
                <ele>11.192505</ele>
                <time>2006-08-26T09:49:28Z</time>
            </trkpt>
            <trkpt lon="100.478491" lat="13.927784">
                <ele>10.711792</ele>
                <time>2006-08-26T09:49:33Z</time>
            </trkpt>
            <trkpt lon="100.478627" lat="13.927721">
                <ele>9.750610</ele>
                <time>2006-08-26T09:49:37Z</time>
            </trkpt>
            <trkpt lon="100.478768" lat="13.927502">
                <ele>9.750610</ele>
                <time>2006-08-26T09:49:42Z</time>
            </trkpt>
            <trkpt lon="100.478933" lat="13.927366">
                <ele>9.750610</ele>
                <time>2006-08-26T09:49:46Z</time>
            </trkpt>
            <trkpt lon="100.479022" lat="13.927323">
                <ele>9.750610</ele>
                <time>2006-08-26T09:49:48Z</time>
            </trkpt>
            <trkpt lon="100.479287" lat="13.927383">
                <ele>11.192505</ele>
                <time>2006-08-26T09:49:54Z</time>
            </trkpt>
            <trkpt lon="100.479467" lat="13.927388">
                <ele>9.269897</ele>
                <time>2006-08-26T09:49:58Z</time>
            </trkpt>
            <trkpt lon="100.479916" lat="13.927392">
                <ele>9.750610</ele>
                <time>2006-08-26T09:50:11Z</time>
            </trkpt>
            <trkpt lon="100.479953" lat="13.927412">
                <ele>10.231201</ele>
                <time>2006-08-26T09:50:13Z</time>
            </trkpt>
            <trkpt lon="100.479947" lat="13.927461">
                <ele>11.192505</ele>
                <time>2006-08-26T09:50:24Z</time>
            </trkpt>
            <trkpt lon="100.479972" lat="13.927471">
                <ele>2.060059</ele>
                <time>2006-08-26T09:51:10Z</time>
            </trkpt>
            <trkpt lon="100.479911" lat="13.927516">
                <ele>15.999023</ele>
                <time>2006-08-26T09:53:29Z</time>
            </trkpt>
            <trkpt lon="100.479874" lat="13.927530">
                <ele>14.557007</ele>
                <time>2006-08-26T09:53:36Z</time>
            </trkpt>
        </trkseg>
    </trk>
</gpx>